<?xml version='1.0' encoding='UTF-8'?><gpx version="1.1" creator="JPX - https://github.com/jenetics/jpx" xmlns="http://www.topografix.com/GPX/1/1"><trk><trkseg><trkpt lat="45.7477366" lon="11.6602284"><ele>103.33333333333333</ele><time>2026-04-04T07:51:29.333Z</time></trkpt><trkpt lat="45.747666" lon="11.6606013"><ele>102.66666666666666</ele><time>2026-04-04T07:51:30.332Z</time></trkpt><trkpt lat="45.7475854" lon="11.660378"><ele>102.0</ele><time>2026-04-04T07:51:31.331Z</time></trkpt><trkpt lat="45.7476582" lon="11.6603324"><ele>102.19999999999999</ele><time>2026-04-04T07:51:34.335Z</time></trkpt><trkpt lat="45.747756" lon="11.6603406"><ele>102.4</ele><time>2026-04-04T07:51:36.34Z</time></trkpt><trkpt lat="45.7478795" lon="11.6603459"><ele>102.6</ele><time>2026-04-04T07:51:46.345Z</time></trkpt><trkpt lat="45.7479903" lon="11.6603628"><ele>102.80000000000001</ele><time>2026-04-04T07:51:48.346Z</time></trkpt><trkpt lat="45.7480686" lon="11.6603729"><ele>103.0</ele><time>2026-04-04T07:51:51.241Z</time></trkpt><trkpt lat="45.7481667" lon="11.6603828"><ele>103.00000000000001</ele><time>2026-04-04T07:51:56.257Z</time></trkpt><trkpt lat="45.7482432" lon="11.6603903"><ele>103.0</ele><time>2026-04-04T07:52:01.25Z</time></trkpt><trkpt lat="45.7482661" lon="11.6604837"><ele>103.0</ele><time>2026-04-04T07:52:31.277Z</time></trkpt><trkpt lat="45.7482316" lon="11.6605669"><ele>103.0</ele><time>2026-04-04T07:53:04.267Z</time></trkpt><trkpt lat="45.7481792" lon="11.6606581"><ele>103.00000000000001</ele><time>2026-04-04T07:53:43.261Z</time></trkpt><trkpt lat="45.7480994" lon="11.6606837"><ele>103.0</ele><time>2026-04-04T07:53:45.267Z</time></trkpt><trkpt lat="45.7479762" lon="11.6607063"><ele>103.0</ele><time>2026-04-04T07:53:47.272Z</time></trkpt><trkpt lat="45.7479062" lon="11.6607061"><ele>103.0</ele><time>2026-04-04T07:53:48.269Z</time></trkpt><trkpt lat="45.7477783" lon="11.6606998"><ele>103.0</ele><time>2026-04-04T07:53:50.262Z</time></trkpt><trkpt lat="45.7477129" lon="11.6606938"><ele>103.0</ele><time>2026-04-04T07:53:51.262Z</time></trkpt><trkpt lat="45.7475668" lon="11.6607132"><ele>103.0</ele><time>2026-04-04T07:53:54.257Z</time></trkpt><trkpt lat="45.7475014" lon="11.6607306"><ele>103.00000000000001</ele><time>2026-04-04T07:53:57.265Z</time></trkpt><trkpt lat="45.7474785" lon="11.6606222"><ele>103.0</ele><time>2026-04-04T07:54:05.272Z</time></trkpt><trkpt lat="45.7474568" lon="11.6604495"><ele>103.0</ele><time>2026-04-04T07:54:07.273Z</time></trkpt><trkpt lat="45.7474499" lon="11.6603451"><ele>103.0</ele><time>2026-04-04T07:54:08.271Z</time></trkpt><trkpt lat="45.7474435" lon="11.6602334"><ele>103.00000000000001</ele><time>2026-04-04T07:54:09.276Z</time></trkpt><trkpt lat="45.7474368" lon="11.6601177"><ele>103.0</ele><time>2026-04-04T07:54:10.276Z</time></trkpt><trkpt lat="45.7474308" lon="11.6600001"><ele>103.00000000000001</ele><time>2026-04-04T07:54:11.274Z</time></trkpt><trkpt lat="45.7474209" lon="11.6598797"><ele>103.0</ele><time>2026-04-04T07:54:12.274Z</time></trkpt><trkpt lat="45.7474159" lon="11.6597533"><ele>103.0</ele><time>2026-04-04T07:54:13.273Z</time></trkpt><trkpt lat="45.7474081" lon="11.6596262"><ele>103.0</ele><time>2026-04-04T07:54:14.272Z</time></trkpt><trkpt lat="45.7474027" lon="11.6594995"><ele>103.00000000000001</ele><time>2026-04-04T07:54:15.278Z</time></trkpt><trkpt lat="45.7473993" lon="11.6593765"><ele>103.0</ele><time>2026-04-04T07:54:16.279Z</time></trkpt><trkpt lat="45.7473936" lon="11.6592576"><ele>102.99999999999999</ele><time>2026-04-04T07:54:17.277Z</time></trkpt><trkpt lat="45.7473901" lon="11.6591387"><ele>103.0</ele><time>2026-04-04T07:54:18.276Z</time></trkpt><trkpt lat="45.7473861" lon="11.6590229"><ele>103.0</ele><time>2026-04-04T07:54:19.276Z</time></trkpt><trkpt lat="45.7473818" lon="11.6589104"><ele>103.0</ele><time>2026-04-04T07:54:20.272Z</time></trkpt><trkpt lat="45.7473781" lon="11.6588096"><ele>103.0</ele><time>2026-04-04T07:54:21.275Z</time></trkpt><trkpt lat="45.7473695" lon="11.658714"><ele>102.99999999999999</ele><time>2026-04-04T07:54:22.272Z</time></trkpt><trkpt lat="45.7473586" lon="11.6586214"><ele>103.0</ele><time>2026-04-04T07:54:23.271Z</time></trkpt><trkpt lat="45.7473462" lon="11.6584454"><ele>102.80000000000001</ele><time>2026-04-04T07:54:25.273Z</time></trkpt><trkpt lat="45.7473504" lon="11.658292"><ele>102.6</ele><time>2026-04-04T07:54:27.266Z</time></trkpt><trkpt lat="45.7473529" lon="11.6581604"><ele>102.4</ele><time>2026-04-04T07:54:29.255Z</time></trkpt><trkpt lat="45.7473504" lon="11.6580138"><ele>102.19999999999999</ele><time>2026-04-04T07:54:31.259Z</time></trkpt><trkpt lat="45.7473443" lon="11.6578383"><ele>102.0</ele><time>2026-04-04T07:54:33.261Z</time></trkpt><trkpt lat="45.7473228" lon="11.6576717"><ele>102.0</ele><time>2026-04-04T07:54:35.274Z</time></trkpt><trkpt lat="45.7472633" lon="11.6575883"><ele>102.0</ele><time>2026-04-04T07:54:37.268Z</time></trkpt><trkpt lat="45.7471998" lon="11.6576074"><ele>102.0</ele><time>2026-04-04T07:54:38.269Z</time></trkpt><trkpt lat="45.7471171" lon="11.6576745"><ele>102.0</ele><time>2026-04-04T07:54:39.264Z</time></trkpt><trkpt lat="45.7470343" lon="11.65775"><ele>102.0</ele><time>2026-04-04T07:54:40.259Z</time></trkpt><trkpt lat="45.7469462" lon="11.6578223"><ele>102.0</ele><time>2026-04-04T07:54:41.261Z</time></trkpt><trkpt lat="45.7468584" lon="11.6578919"><ele>102.0</ele><time>2026-04-04T07:54:42.263Z</time></trkpt><trkpt lat="45.7467726" lon="11.6579568"><ele>102.0</ele><time>2026-04-04T07:54:43.265Z</time></trkpt><trkpt lat="45.7466856" lon="11.6580156"><ele>102.0</ele><time>2026-04-04T07:54:44.263Z</time></trkpt><trkpt lat="45.7464382" lon="11.658176"><ele>102.0</ele><time>2026-04-04T07:54:47.266Z</time></trkpt><trkpt lat="45.7463625" lon="11.6582238"><ele>102.0</ele><time>2026-04-04T07:54:48.264Z</time></trkpt><trkpt lat="45.7462891" lon="11.6582668"><ele>102.0</ele><time>2026-04-04T07:54:49.272Z</time></trkpt><trkpt lat="45.7462209" lon="11.6583097"><ele>102.0</ele><time>2026-04-04T07:54:50.268Z</time></trkpt><trkpt lat="45.7461556" lon="11.6583419"><ele>102.0</ele><time>2026-04-04T07:54:51.271Z</time></trkpt><trkpt lat="45.7460928" lon="11.6583561"><ele>102.0</ele><time>2026-04-04T07:54:52.268Z</time></trkpt><trkpt lat="45.7459969" lon="11.6583548"><ele>101.8</ele><time>2026-04-04T07:54:54.275Z</time></trkpt><trkpt lat="45.7459198" lon="11.6583375"><ele>101.6</ele><time>2026-04-04T07:54:56.28Z</time></trkpt><trkpt lat="45.7458747" lon="11.6584272"><ele>101.39999999999999</ele><time>2026-04-04T07:54:58.267Z</time></trkpt><trkpt lat="45.7458851" lon="11.6585828"><ele>101.19999999999999</ele><time>2026-04-04T07:55:00.271Z</time></trkpt><trkpt lat="45.7458691" lon="11.6586741"><ele>101.0</ele><time>2026-04-04T07:55:01.278Z</time></trkpt><trkpt lat="45.7457695" lon="11.6587739"><ele>101.0</ele><time>2026-04-04T07:55:03.283Z</time></trkpt><trkpt lat="45.7456609" lon="11.6587421"><ele>101.0</ele><time>2026-04-04T07:55:04.272Z</time></trkpt><trkpt lat="45.7455269" lon="11.6586641"><ele>101.0</ele><time>2026-04-04T07:55:05.269Z</time></trkpt><trkpt lat="45.7453713" lon="11.6585782"><ele>101.0</ele><time>2026-04-04T07:55:06.258Z</time></trkpt><trkpt lat="45.7451868" lon="11.6585051"><ele>100.66666666666666</ele><time>2026-04-04T07:55:07.272Z</time></trkpt><trkpt lat="45.7449852" lon="11.6584384"><ele>100.33333333333334</ele><time>2026-04-04T07:55:08.267Z</time></trkpt><trkpt lat="45.7447804" lon="11.6583915"><ele>100.0</ele><time>2026-04-04T07:55:09.275Z</time></trkpt><trkpt lat="45.7445835" lon="11.6583561"><ele>100.0</ele><time>2026-04-04T07:55:10.273Z</time></trkpt><trkpt lat="45.744404" lon="11.6583338"><ele>100.0</ele><time>2026-04-04T07:55:11.272Z</time></trkpt><trkpt lat="45.7442328" lon="11.6583337"><ele>100.0</ele><time>2026-04-04T07:55:12.274Z</time></trkpt><trkpt lat="45.7440752" lon="11.6583319"><ele>100.0</ele><time>2026-04-04T07:55:13.276Z</time></trkpt><trkpt lat="45.7439302" lon="11.6583397"><ele>100.0</ele><time>2026-04-04T07:55:14.276Z</time></trkpt><trkpt lat="45.7437915" lon="11.6583653"><ele>100.0</ele><time>2026-04-04T07:55:15.275Z</time></trkpt><trkpt lat="45.7436499" lon="11.6583893"><ele>100.0</ele><time>2026-04-04T07:55:16.278Z</time></trkpt><trkpt lat="45.7435122" lon="11.658399"><ele>100.25</ele><time>2026-04-04T07:55:17.276Z</time></trkpt><trkpt lat="45.7433879" lon="11.658416"><ele>100.5</ele><time>2026-04-04T07:55:18.288Z</time></trkpt><trkpt lat="45.7432642" lon="11.6584285"><ele>100.75</ele><time>2026-04-04T07:55:19.279Z</time></trkpt><trkpt lat="45.7431361" lon="11.6584415"><ele>101.0</ele><time>2026-04-04T07:55:20.286Z</time></trkpt><trkpt lat="45.7430069" lon="11.658452"><ele>101.0</ele><time>2026-04-04T07:55:21.287Z</time></trkpt><trkpt lat="45.7428827" lon="11.658459"><ele>101.0</ele><time>2026-04-04T07:55:22.287Z</time></trkpt><trkpt lat="45.7427618" lon="11.6584724"><ele>101.0</ele><time>2026-04-04T07:55:23.298Z</time></trkpt><trkpt lat="45.7426418" lon="11.658478"><ele>101.0</ele><time>2026-04-04T07:55:24.295Z</time></trkpt><trkpt lat="45.7425183" lon="11.6584838"><ele>100.25</ele><time>2026-04-04T07:55:25.298Z</time></trkpt><trkpt lat="45.7423974" lon="11.6584988"><ele>99.5</ele><time>2026-04-04T07:55:26.297Z</time></trkpt><trkpt lat="45.7422753" lon="11.6585133"><ele>98.75</ele><time>2026-04-04T07:55:27.297Z</time></trkpt><trkpt lat="45.7421512" lon="11.6585194"><ele>98.0</ele><time>2026-04-04T07:55:28.298Z</time></trkpt><trkpt lat="45.7420339" lon="11.658538"><ele>98.0</ele><time>2026-04-04T07:55:29.299Z</time></trkpt><trkpt lat="45.7419172" lon="11.6585599"><ele>98.0</ele><time>2026-04-04T07:55:30.295Z</time></trkpt><trkpt lat="45.7418087" lon="11.6585856"><ele>98.0</ele><time>2026-04-04T07:55:31.302Z</time></trkpt><trkpt lat="45.7417057" lon="11.6586236"><ele>98.0</ele><time>2026-04-04T07:55:32.304Z</time></trkpt><trkpt lat="45.7416117" lon="11.6586667"><ele>98.0</ele><time>2026-04-04T07:55:33.295Z</time></trkpt><trkpt lat="45.7415225" lon="11.6586958"><ele>97.99999999999999</ele><time>2026-04-04T07:55:34.307Z</time></trkpt><trkpt lat="45.7414412" lon="11.658714"><ele>98.0</ele><time>2026-04-04T07:55:35.305Z</time></trkpt><trkpt lat="45.7413622" lon="11.658702"><ele>98.0</ele><time>2026-04-04T07:55:36.3Z</time></trkpt><trkpt lat="45.741287" lon="11.6586574"><ele>98.0</ele><time>2026-04-04T07:55:37.303Z</time></trkpt><trkpt lat="45.7412156" lon="11.6586141"><ele>97.99999999999999</ele><time>2026-04-04T07:55:38.301Z</time></trkpt><trkpt lat="45.7411464" lon="11.6586179"><ele>98.0</ele><time>2026-04-04T07:55:39.297Z</time></trkpt><trkpt lat="45.7410814" lon="11.6586808"><ele>98.0</ele><time>2026-04-04T07:55:40.303Z</time></trkpt><trkpt lat="45.7410365" lon="11.6587882"><ele>98.0</ele><time>2026-04-04T07:55:41.304Z</time></trkpt><trkpt lat="45.7410194" lon="11.658924"><ele>98.0</ele><time>2026-04-04T07:55:42.293Z</time></trkpt><trkpt lat="45.7409965" lon="11.6590621"><ele>98.0</ele><time>2026-04-04T07:55:43.294Z</time></trkpt><trkpt lat="45.7409494" lon="11.6591797"><ele>98.0</ele><time>2026-04-04T07:55:44.29Z</time></trkpt><trkpt lat="45.7408768" lon="11.6592847"><ele>98.0</ele><time>2026-04-04T07:55:45.3Z</time></trkpt><trkpt lat="45.7407684" lon="11.6593525"><ele>98.0</ele><time>2026-04-04T07:55:46.296Z</time></trkpt><trkpt lat="45.7406073" lon="11.6593847"><ele>98.0</ele><time>2026-04-04T07:55:47.299Z</time></trkpt><trkpt lat="45.7404135" lon="11.6594172"><ele>97.5</ele><time>2026-04-04T07:55:48.289Z</time></trkpt><trkpt lat="45.7401555" lon="11.6594519"><ele>97.0</ele><time>2026-04-04T07:55:49.291Z</time></trkpt><trkpt lat="45.7399144" lon="11.6594943"><ele>97.0</ele><time>2026-04-04T07:55:50.289Z</time></trkpt><trkpt lat="45.7396588" lon="11.6595569"><ele>97.0</ele><time>2026-04-04T07:55:51.286Z</time></trkpt><trkpt lat="45.7393966" lon="11.6596256"><ele>95.5</ele><time>2026-04-04T07:55:52.29Z</time></trkpt><trkpt lat="45.7391545" lon="11.6596835"><ele>94.0</ele><time>2026-04-04T07:55:53.295Z</time></trkpt><trkpt lat="45.7389167" lon="11.6597512"><ele>94.0</ele><time>2026-04-04T07:55:54.303Z</time></trkpt><trkpt lat="45.7386936" lon="11.6598205"><ele>94.0</ele><time>2026-04-04T07:55:55.294Z</time></trkpt><trkpt lat="45.7384839" lon="11.6598667"><ele>94.0</ele><time>2026-04-04T07:55:56.31Z</time></trkpt><trkpt lat="45.7382829" lon="11.6599222"><ele>93.66666666666666</ele><time>2026-04-04T07:55:57.305Z</time></trkpt><trkpt lat="45.7381028" lon="11.6599731"><ele>93.33333333333333</ele><time>2026-04-04T07:55:58.296Z</time></trkpt><trkpt lat="45.7379192" lon="11.660008"><ele>93.0</ele><time>2026-04-04T07:55:59.299Z</time></trkpt><trkpt lat="45.7377244" lon="11.6600628"><ele>93.33333333333333</ele><time>2026-04-04T07:56:00.295Z</time></trkpt><trkpt lat="45.7375263" lon="11.6601214"><ele>93.66666666666666</ele><time>2026-04-04T07:56:01.292Z</time></trkpt><trkpt lat="45.7373453" lon="11.6601783"><ele>94.0</ele><time>2026-04-04T07:56:02.297Z</time></trkpt><trkpt lat="45.7371822" lon="11.6602059"><ele>94.0</ele><time>2026-04-04T07:56:03.305Z</time></trkpt><trkpt lat="45.7370198" lon="11.6602497"><ele>94.0</ele><time>2026-04-04T07:56:04.302Z</time></trkpt><trkpt lat="45.7368596" lon="11.6603204"><ele>94.0</ele><time>2026-04-04T07:56:05.314Z</time></trkpt><trkpt lat="45.7366935" lon="11.6604157"><ele>93.66666666666666</ele><time>2026-04-04T07:56:06.3Z</time></trkpt><trkpt lat="45.7365157" lon="11.6605262"><ele>93.33333333333333</ele><time>2026-04-04T07:56:07.304Z</time></trkpt><trkpt lat="45.7363283" lon="11.6606314"><ele>93.0</ele><time>2026-04-04T07:56:08.301Z</time></trkpt><trkpt lat="45.7361589" lon="11.6607387"><ele>92.66666666666667</ele><time>2026-04-04T07:56:09.304Z</time></trkpt><trkpt lat="45.7359973" lon="11.6608459"><ele>92.33333333333334</ele><time>2026-04-04T07:56:10.29Z</time></trkpt><trkpt lat="45.7358064" lon="11.6609472"><ele>92.0</ele><time>2026-04-04T07:56:11.295Z</time></trkpt><trkpt lat="45.7356077" lon="11.6610617"><ele>92.0</ele><time>2026-04-04T07:56:12.298Z</time></trkpt><trkpt lat="45.7354126" lon="11.6611948"><ele>92.0</ele><time>2026-04-04T07:56:13.302Z</time></trkpt><trkpt lat="45.7352087" lon="11.6613129"><ele>92.0</ele><time>2026-04-04T07:56:14.296Z</time></trkpt><trkpt lat="45.7350005" lon="11.6614435"><ele>92.0</ele><time>2026-04-04T07:56:15.294Z</time></trkpt><trkpt lat="45.7347854" lon="11.661579"><ele>92.0</ele><time>2026-04-04T07:56:16.294Z</time></trkpt><trkpt lat="45.7345678" lon="11.6617165"><ele>92.0</ele><time>2026-04-04T07:56:17.301Z</time></trkpt><trkpt lat="45.7343461" lon="11.6618558"><ele>92.0</ele><time>2026-04-04T07:56:18.304Z</time></trkpt><trkpt lat="45.7341289" lon="11.6619791"><ele>92.0</ele><time>2026-04-04T07:56:19.306Z</time></trkpt><trkpt lat="45.7339134" lon="11.6621174"><ele>92.0</ele><time>2026-04-04T07:56:20.305Z</time></trkpt><trkpt lat="45.7336889" lon="11.662256"><ele>91.5</ele><time>2026-04-04T07:56:21.304Z</time></trkpt><trkpt lat="45.7334675" lon="11.6623927"><ele>91.0</ele><time>2026-04-04T07:56:22.309Z</time></trkpt><trkpt lat="45.7332503" lon="11.6625311"><ele>91.0</ele><time>2026-04-04T07:56:23.313Z</time></trkpt><trkpt lat="45.7330267" lon="11.6626521"><ele>91.0</ele><time>2026-04-04T07:56:24.303Z</time></trkpt><trkpt lat="45.732806" lon="11.6627762"><ele>89.5</ele><time>2026-04-04T07:56:25.306Z</time></trkpt><trkpt lat="45.7325894" lon="11.6629092"><ele>88.0</ele><time>2026-04-04T07:56:26.312Z</time></trkpt><trkpt lat="45.7323723" lon="11.6630387"><ele>88.0</ele><time>2026-04-04T07:56:27.315Z</time></trkpt><trkpt lat="45.7321507" lon="11.6631636"><ele>88.0</ele><time>2026-04-04T07:56:28.308Z</time></trkpt><trkpt lat="45.731938" lon="11.6632843"><ele>87.33333333333333</ele><time>2026-04-04T07:56:29.308Z</time></trkpt><trkpt lat="45.7317334" lon="11.6634031"><ele>86.66666666666667</ele><time>2026-04-04T07:56:30.308Z</time></trkpt><trkpt lat="45.7315376" lon="11.6635156"><ele>86.0</ele><time>2026-04-04T07:56:31.321Z</time></trkpt><trkpt lat="45.7313495" lon="11.6636209"><ele>86.0</ele><time>2026-04-04T07:56:32.305Z</time></trkpt><trkpt lat="45.7311723" lon="11.6637227"><ele>86.0</ele><time>2026-04-04T07:56:33.323Z</time></trkpt><trkpt lat="45.7309982" lon="11.6638145"><ele>86.0</ele><time>2026-04-04T07:56:34.316Z</time></trkpt><trkpt lat="45.7308245" lon="11.663913"><ele>86.66666666666667</ele><time>2026-04-04T07:56:35.308Z</time></trkpt><trkpt lat="45.7306577" lon="11.6640024"><ele>87.33333333333333</ele><time>2026-04-04T07:56:36.322Z</time></trkpt><trkpt lat="45.7305045" lon="11.6640824"><ele>88.0</ele><time>2026-04-04T07:56:37.312Z</time></trkpt><trkpt lat="45.7303484" lon="11.6641585"><ele>88.0</ele><time>2026-04-04T07:56:38.31Z</time></trkpt><trkpt lat="45.7302012" lon="11.6642386"><ele>88.0</ele><time>2026-04-04T07:56:39.316Z</time></trkpt><trkpt lat="45.7300667" lon="11.6643226"><ele>88.0</ele><time>2026-04-04T07:56:40.306Z</time></trkpt><trkpt lat="45.7299446" lon="11.6644078"><ele>88.0</ele><time>2026-04-04T07:56:41.318Z</time></trkpt><trkpt lat="45.7298314" lon="11.6645107"><ele>87.75</ele><time>2026-04-04T07:56:42.315Z</time></trkpt><trkpt lat="45.7297507" lon="11.6646651"><ele>87.5</ele><time>2026-04-04T07:56:43.316Z</time></trkpt><trkpt lat="45.7296772" lon="11.6648267"><ele>87.25</ele><time>2026-04-04T07:56:44.307Z</time></trkpt><trkpt lat="45.7296128" lon="11.6649623"><ele>87.0</ele><time>2026-04-04T07:56:45.314Z</time></trkpt><trkpt lat="45.7295627" lon="11.6650795"><ele>87.0</ele><time>2026-04-04T07:56:46.304Z</time></trkpt><trkpt lat="45.72951" lon="11.6651764"><ele>87.0</ele><time>2026-04-04T07:56:47.306Z</time></trkpt><trkpt lat="45.7294632" lon="11.6652587"><ele>87.0</ele><time>2026-04-04T07:56:48.313Z</time></trkpt><trkpt lat="45.7294202" lon="11.6653331"><ele>87.0</ele><time>2026-04-04T07:56:49.32Z</time></trkpt><trkpt lat="45.7293253" lon="11.6654468"><ele>87.0</ele><time>2026-04-04T07:56:51.306Z</time></trkpt><trkpt lat="45.7292622" lon="11.6654941"><ele>87.0</ele><time>2026-04-04T07:56:52.318Z</time></trkpt><trkpt lat="45.7291755" lon="11.6655406"><ele>87.0</ele><time>2026-04-04T07:56:53.317Z</time></trkpt><trkpt lat="45.7291034" lon="11.6656127"><ele>87.0</ele><time>2026-04-04T07:56:54.322Z</time></trkpt><trkpt lat="45.7290567" lon="11.6657255"><ele>87.0</ele><time>2026-04-04T07:56:55.319Z</time></trkpt><trkpt lat="45.7290243" lon="11.6658758"><ele>87.0</ele><time>2026-04-04T07:56:56.324Z</time></trkpt><trkpt lat="45.7290086" lon="11.6660673"><ele>87.0</ele><time>2026-04-04T07:56:57.32Z</time></trkpt><trkpt lat="45.7289674" lon="11.6662661"><ele>87.0</ele><time>2026-04-04T07:56:58.318Z</time></trkpt><trkpt lat="45.7288984" lon="11.6664456"><ele>87.0</ele><time>2026-04-04T07:56:59.318Z</time></trkpt><trkpt lat="45.7288076" lon="11.6666325"><ele>87.0</ele><time>2026-04-04T07:57:00.314Z</time></trkpt><trkpt lat="45.7287296" lon="11.6668306"><ele>86.66666666666667</ele><time>2026-04-04T07:57:01.319Z</time></trkpt><trkpt lat="45.7286572" lon="11.6670493"><ele>86.33333333333334</ele><time>2026-04-04T07:57:02.323Z</time></trkpt><trkpt lat="45.7285942" lon="11.667274"><ele>86.0</ele><time>2026-04-04T07:57:03.321Z</time></trkpt><trkpt lat="45.7285285" lon="11.6674955"><ele>86.0</ele><time>2026-04-04T07:57:04.319Z</time></trkpt><trkpt lat="45.7284678" lon="11.667732"><ele>86.0</ele><time>2026-04-04T07:57:05.324Z</time></trkpt><trkpt lat="45.7283952" lon="11.6679778"><ele>86.0</ele><time>2026-04-04T07:57:06.319Z</time></trkpt><trkpt lat="45.7283272" lon="11.6682213"><ele>86.0</ele><time>2026-04-04T07:57:07.328Z</time></trkpt><trkpt lat="45.7282625" lon="11.6684704"><ele>86.0</ele><time>2026-04-04T07:57:08.309Z</time></trkpt><trkpt lat="45.7282099" lon="11.6687348"><ele>86.0</ele><time>2026-04-04T07:57:09.327Z</time></trkpt><trkpt lat="45.7281756" lon="11.6690026"><ele>85.66666666666667</ele><time>2026-04-04T07:57:10.315Z</time></trkpt><trkpt lat="45.7281506" lon="11.6692681"><ele>85.33333333333333</ele><time>2026-04-04T07:57:11.321Z</time></trkpt><trkpt lat="45.7281241" lon="11.66953"><ele>85.0</ele><time>2026-04-04T07:57:12.318Z</time></trkpt><trkpt lat="45.7281045" lon="11.6697974"><ele>85.0</ele><time>2026-04-04T07:57:13.313Z</time></trkpt><trkpt lat="45.7280696" lon="11.6700723"><ele>85.0</ele><time>2026-04-04T07:57:14.317Z</time></trkpt><trkpt lat="45.7280487" lon="11.670342"><ele>85.0</ele><time>2026-04-04T07:57:15.326Z</time></trkpt><trkpt lat="45.7280223" lon="11.6706073"><ele>85.0</ele><time>2026-04-04T07:57:16.316Z</time></trkpt><trkpt lat="45.7279991" lon="11.6708592"><ele>85.0</ele><time>2026-04-04T07:57:17.323Z</time></trkpt><trkpt lat="45.7279738" lon="11.6711082"><ele>85.0</ele><time>2026-04-04T07:57:18.318Z</time></trkpt><trkpt lat="45.7279407" lon="11.6713567"><ele>85.33333333333333</ele><time>2026-04-04T07:57:19.315Z</time></trkpt><trkpt lat="45.7279085" lon="11.6716009"><ele>85.66666666666667</ele><time>2026-04-04T07:57:20.315Z</time></trkpt><trkpt lat="45.727863" lon="11.6718305"><ele>86.0</ele><time>2026-04-04T07:57:21.31Z</time></trkpt><trkpt lat="45.7277863" lon="11.6720503"><ele>85.66666666666667</ele><time>2026-04-04T07:57:22.31Z</time></trkpt><trkpt lat="45.7276898" lon="11.6722568"><ele>85.33333333333333</ele><time>2026-04-04T07:57:23.316Z</time></trkpt><trkpt lat="45.7275738" lon="11.6724575"><ele>85.0</ele><time>2026-04-04T07:57:24.314Z</time></trkpt><trkpt lat="45.7274554" lon="11.6726602"><ele>85.66666666666666</ele><time>2026-04-04T07:57:25.311Z</time></trkpt><trkpt lat="45.7273195" lon="11.6728618"><ele>86.33333333333333</ele><time>2026-04-04T07:57:26.322Z</time></trkpt><trkpt lat="45.7271897" lon="11.6730664"><ele>87.0</ele><time>2026-04-04T07:57:27.327Z</time></trkpt><trkpt lat="45.7270666" lon="11.6732662"><ele>87.0</ele><time>2026-04-04T07:57:28.315Z</time></trkpt><trkpt lat="45.7269406" lon="11.6734493"><ele>87.0</ele><time>2026-04-04T07:57:29.318Z</time></trkpt><trkpt lat="45.7268186" lon="11.67365"><ele>87.0</ele><time>2026-04-04T07:57:30.319Z</time></trkpt><trkpt lat="45.7266909" lon="11.6738429"><ele>87.0</ele><time>2026-04-04T07:57:31.303Z</time></trkpt><trkpt lat="45.7265662" lon="11.6740179"><ele>87.0</ele><time>2026-04-04T07:57:32.312Z</time></trkpt><trkpt lat="45.7264575" lon="11.674193"><ele>87.0</ele><time>2026-04-04T07:57:33.315Z</time></trkpt><trkpt lat="45.7263592" lon="11.6743668"><ele>87.0</ele><time>2026-04-04T07:57:34.303Z</time></trkpt><trkpt lat="45.7262792" lon="11.6745327"><ele>87.0</ele><time>2026-04-04T07:57:35.31Z</time></trkpt><trkpt lat="45.7262059" lon="11.6746955"><ele>87.0</ele><time>2026-04-04T07:57:36.312Z</time></trkpt><trkpt lat="45.7261498" lon="11.674851"><ele>87.0</ele><time>2026-04-04T07:57:37.317Z</time></trkpt><trkpt lat="45.7261059" lon="11.6750188"><ele>87.0</ele><time>2026-04-04T07:57:38.327Z</time></trkpt><trkpt lat="45.7260636" lon="11.6751928"><ele>87.0</ele><time>2026-04-04T07:57:39.319Z</time></trkpt><trkpt lat="45.7260086" lon="11.6753838"><ele>87.0</ele><time>2026-04-04T07:57:40.314Z</time></trkpt><trkpt lat="45.7259574" lon="11.6755744"><ele>87.0</ele><time>2026-04-04T07:57:41.32Z</time></trkpt><trkpt lat="45.7259009" lon="11.6757765"><ele>86.5</ele><time>2026-04-04T07:57:42.322Z</time></trkpt><trkpt lat="45.7258678" lon="11.6759634"><ele>86.0</ele><time>2026-04-04T07:57:43.322Z</time></trkpt><trkpt lat="45.7258382" lon="11.6761431"><ele>85.5</ele><time>2026-04-04T07:57:44.325Z</time></trkpt><trkpt lat="45.7258231" lon="11.6763192"><ele>85.0</ele><time>2026-04-04T07:57:45.321Z</time></trkpt><trkpt lat="45.7258277" lon="11.6764872"><ele>85.0</ele><time>2026-04-04T07:57:46.316Z</time></trkpt><trkpt lat="45.7258329" lon="11.6766502"><ele>85.0</ele><time>2026-04-04T07:57:47.317Z</time></trkpt><trkpt lat="45.7258362" lon="11.676802"><ele>85.0</ele><time>2026-04-04T07:57:48.323Z</time></trkpt><trkpt lat="45.7258422" lon="11.6769495"><ele>85.0</ele><time>2026-04-04T07:57:49.319Z</time></trkpt><trkpt lat="45.7258439" lon="11.677093"><ele>85.0</ele><time>2026-04-04T07:57:50.322Z</time></trkpt><trkpt lat="45.7258452" lon="11.6772452"><ele>85.2</ele><time>2026-04-04T07:57:51.323Z</time></trkpt><trkpt lat="45.7258493" lon="11.6774006"><ele>85.4</ele><time>2026-04-04T07:57:52.32Z</time></trkpt><trkpt lat="45.7258547" lon="11.6775619"><ele>85.6</ele><time>2026-04-04T07:57:53.321Z</time></trkpt><trkpt lat="45.7258576" lon="11.6777186"><ele>85.8</ele><time>2026-04-04T07:57:54.32Z</time></trkpt><trkpt lat="45.7258699" lon="11.6778771"><ele>86.0</ele><time>2026-04-04T07:57:55.324Z</time></trkpt><trkpt lat="45.7258796" lon="11.6780391"><ele>86.0</ele><time>2026-04-04T07:57:56.324Z</time></trkpt><trkpt lat="45.7258892" lon="11.6782101"><ele>86.0</ele><time>2026-04-04T07:57:57.327Z</time></trkpt><trkpt lat="45.725897" lon="11.6783854"><ele>86.0</ele><time>2026-04-04T07:57:58.315Z</time></trkpt><trkpt lat="45.725907" lon="11.6785579"><ele>86.0</ele><time>2026-04-04T07:57:59.318Z</time></trkpt><trkpt lat="45.7259175" lon="11.6787085"><ele>85.5</ele><time>2026-04-04T07:58:00.321Z</time></trkpt><trkpt lat="45.7259256" lon="11.6788275"><ele>85.0</ele><time>2026-04-04T07:58:01.322Z</time></trkpt><trkpt lat="45.7259312" lon="11.6789264"><ele>84.5</ele><time>2026-04-04T07:58:02.312Z</time></trkpt><trkpt lat="45.7259302" lon="11.679063"><ele>84.0</ele><time>2026-04-04T07:58:04.321Z</time></trkpt><trkpt lat="45.7258715" lon="11.6791046"><ele>83.5</ele><time>2026-04-04T07:58:11.314Z</time></trkpt><trkpt lat="45.7258349" lon="11.6792163"><ele>83.0</ele><time>2026-04-04T07:58:13.313Z</time></trkpt><trkpt lat="45.7257682" lon="11.679336"><ele>83.0</ele><time>2026-04-04T07:58:15.307Z</time></trkpt><trkpt lat="45.7257265" lon="11.6794142"><ele>83.0</ele><time>2026-04-04T07:58:16.311Z</time></trkpt><trkpt lat="45.7256773" lon="11.6794992"><ele>83.0</ele><time>2026-04-04T07:58:17.307Z</time></trkpt><trkpt lat="45.725624" lon="11.6795801"><ele>83.0</ele><time>2026-04-04T07:58:18.31Z</time></trkpt><trkpt lat="45.7255699" lon="11.6796701"><ele>83.0</ele><time>2026-04-04T07:58:19.316Z</time></trkpt><trkpt lat="45.7255141" lon="11.6797637"><ele>83.0</ele><time>2026-04-04T07:58:20.312Z</time></trkpt><trkpt lat="45.7254678" lon="11.6798582"><ele>83.16666666666667</ele><time>2026-04-04T07:58:21.318Z</time></trkpt><trkpt lat="45.7254183" lon="11.6799564"><ele>83.33333333333334</ele><time>2026-04-04T07:58:22.313Z</time></trkpt><trkpt lat="45.7253836" lon="11.6800661"><ele>83.5</ele><time>2026-04-04T07:58:23.319Z</time></trkpt><trkpt lat="45.7253552" lon="11.6801819"><ele>83.66666666666667</ele><time>2026-04-04T07:58:24.31Z</time></trkpt><trkpt lat="45.7253304" lon="11.6803024"><ele>83.83333333333333</ele><time>2026-04-04T07:58:25.331Z</time></trkpt><trkpt lat="45.7253136" lon="11.6804407"><ele>84.0</ele><time>2026-04-04T07:58:26.316Z</time></trkpt><trkpt lat="45.7252954" lon="11.6805853"><ele>83.80000000000001</ele><time>2026-04-04T07:58:27.317Z</time></trkpt><trkpt lat="45.7252741" lon="11.6807281"><ele>83.60000000000001</ele><time>2026-04-04T07:58:28.313Z</time></trkpt><trkpt lat="45.7252522" lon="11.6808671"><ele>83.4</ele><time>2026-04-04T07:58:29.322Z</time></trkpt><trkpt lat="45.7252295" lon="11.6810085"><ele>83.2</ele><time>2026-04-04T07:58:30.308Z</time></trkpt><trkpt lat="45.7252025" lon="11.6811564"><ele>83.0</ele><time>2026-04-04T07:58:31.313Z</time></trkpt><trkpt lat="45.7251744" lon="11.6813036"><ele>83.0</ele><time>2026-04-04T07:58:32.317Z</time></trkpt><trkpt lat="45.7251474" lon="11.6814515"><ele>83.0</ele><time>2026-04-04T07:58:33.319Z</time></trkpt><trkpt lat="45.7251231" lon="11.6816101"><ele>83.0</ele><time>2026-04-04T07:58:34.316Z</time></trkpt><trkpt lat="45.7250971" lon="11.6817692"><ele>83.0</ele><time>2026-04-04T07:58:35.319Z</time></trkpt><trkpt lat="45.7250784" lon="11.6819343"><ele>83.0</ele><time>2026-04-04T07:58:36.32Z</time></trkpt><trkpt lat="45.7250607" lon="11.6820944"><ele>83.0</ele><time>2026-04-04T07:58:37.329Z</time></trkpt><trkpt lat="45.7250408" lon="11.682253"><ele>83.0</ele><time>2026-04-04T07:58:38.32Z</time></trkpt><trkpt lat="45.7250228" lon="11.6824129"><ele>83.0</ele><time>2026-04-04T07:58:39.325Z</time></trkpt><trkpt lat="45.7249997" lon="11.6825719"><ele>83.0</ele><time>2026-04-04T07:58:40.343Z</time></trkpt><trkpt lat="45.7249769" lon="11.6827313"><ele>83.0</ele><time>2026-04-04T07:58:41.316Z</time></trkpt><trkpt lat="45.7249528" lon="11.6828978"><ele>83.0</ele><time>2026-04-04T07:58:42.318Z</time></trkpt><trkpt lat="45.7249287" lon="11.6830709"><ele>83.0</ele><time>2026-04-04T07:58:43.326Z</time></trkpt><trkpt lat="45.7249039" lon="11.6832487"><ele>83.0</ele><time>2026-04-04T07:58:44.325Z</time></trkpt><trkpt lat="45.724873" lon="11.6834281"><ele>83.0</ele><time>2026-04-04T07:58:45.327Z</time></trkpt><trkpt lat="45.724843" lon="11.6836132"><ele>83.0</ele><time>2026-04-04T07:58:46.324Z</time></trkpt><trkpt lat="45.7248132" lon="11.6837926"><ele>83.0</ele><time>2026-04-04T07:58:47.333Z</time></trkpt><trkpt lat="45.7247825" lon="11.6839663"><ele>83.0</ele><time>2026-04-04T07:58:48.325Z</time></trkpt><trkpt lat="45.7247563" lon="11.6841264"><ele>83.0</ele><time>2026-04-04T07:58:49.331Z</time></trkpt><trkpt lat="45.7247288" lon="11.6842779"><ele>83.0</ele><time>2026-04-04T07:58:50.325Z</time></trkpt><trkpt lat="45.7247029" lon="11.684427"><ele>83.0</ele><time>2026-04-04T07:58:51.333Z</time></trkpt><trkpt lat="45.7246778" lon="11.6845818"><ele>83.0</ele><time>2026-04-04T07:58:52.323Z</time></trkpt><trkpt lat="45.7246537" lon="11.6847335"><ele>82.80000000000001</ele><time>2026-04-04T07:58:53.334Z</time></trkpt><trkpt lat="45.724632" lon="11.6848817"><ele>82.6</ele><time>2026-04-04T07:58:54.328Z</time></trkpt><trkpt lat="45.7246125" lon="11.6850245"><ele>82.4</ele><time>2026-04-04T07:58:55.327Z</time></trkpt><trkpt lat="45.7245909" lon="11.6851603"><ele>82.19999999999999</ele><time>2026-04-04T07:58:56.333Z</time></trkpt><trkpt lat="45.7245654" lon="11.6852952"><ele>82.0</ele><time>2026-04-04T07:58:57.331Z</time></trkpt><trkpt lat="45.7245466" lon="11.6854312"><ele>82.0</ele><time>2026-04-04T07:58:58.328Z</time></trkpt><trkpt lat="45.7245226" lon="11.6855648"><ele>82.0</ele><time>2026-04-04T07:58:59.326Z</time></trkpt><trkpt lat="45.7244935" lon="11.685701"><ele>82.0</ele><time>2026-04-04T07:59:00.33Z</time></trkpt><trkpt lat="45.7244688" lon="11.6858479"><ele>82.0</ele><time>2026-04-04T07:59:01.323Z</time></trkpt><trkpt lat="45.7244391" lon="11.6860093"><ele>82.0</ele><time>2026-04-04T07:59:02.327Z</time></trkpt><trkpt lat="45.7244029" lon="11.6861766"><ele>82.0</ele><time>2026-04-04T07:59:03.334Z</time></trkpt><trkpt lat="45.7243611" lon="11.6863618"><ele>82.0</ele><time>2026-04-04T07:59:04.317Z</time></trkpt><trkpt lat="45.7243182" lon="11.6865551"><ele>82.0</ele><time>2026-04-04T07:59:05.332Z</time></trkpt><trkpt lat="45.7242701" lon="11.6867448"><ele>82.0</ele><time>2026-04-04T07:59:06.327Z</time></trkpt><trkpt lat="45.7242124" lon="11.6869439"><ele>82.0</ele><time>2026-04-04T07:59:07.328Z</time></trkpt><trkpt lat="45.7241537" lon="11.6871461"><ele>82.0</ele><time>2026-04-04T07:59:08.338Z</time></trkpt><trkpt lat="45.7240992" lon="11.6873243"><ele>82.0</ele><time>2026-04-04T07:59:09.331Z</time></trkpt><trkpt lat="45.7240445" lon="11.6874946"><ele>82.0</ele><time>2026-04-04T07:59:10.347Z</time></trkpt><trkpt lat="45.7239947" lon="11.6876594"><ele>82.0</ele><time>2026-04-04T07:59:11.329Z</time></trkpt><trkpt lat="45.7239414" lon="11.6878358"><ele>82.0</ele><time>2026-04-04T07:59:12.33Z</time></trkpt><trkpt lat="45.723891" lon="11.688012"><ele>82.0</ele><time>2026-04-04T07:59:13.334Z</time></trkpt><trkpt lat="45.72384" lon="11.6881824"><ele>82.0</ele><time>2026-04-04T07:59:14.33Z</time></trkpt><trkpt lat="45.7237862" lon="11.6883506"><ele>82.0</ele><time>2026-04-04T07:59:15.327Z</time></trkpt><trkpt lat="45.7237448" lon="11.6885019"><ele>82.0</ele><time>2026-04-04T07:59:16.328Z</time></trkpt><trkpt lat="45.723703" lon="11.6886361"><ele>82.0</ele><time>2026-04-04T07:59:17.334Z</time></trkpt><trkpt lat="45.7236657" lon="11.6887483"><ele>82.0</ele><time>2026-04-04T07:59:18.333Z</time></trkpt><trkpt lat="45.7236424" lon="11.6888427"><ele>82.0</ele><time>2026-04-04T07:59:19.335Z</time></trkpt><trkpt lat="45.7236119" lon="11.6889244"><ele>82.0</ele><time>2026-04-04T07:59:20.331Z</time></trkpt><trkpt lat="45.7235635" lon="11.6889879"><ele>82.33333333333333</ele><time>2026-04-04T07:59:21.331Z</time></trkpt><trkpt lat="45.7234968" lon="11.6890269"><ele>82.66666666666666</ele><time>2026-04-04T07:59:22.324Z</time></trkpt><trkpt lat="45.7234278" lon="11.6890287"><ele>83.0</ele><time>2026-04-04T07:59:23.336Z</time></trkpt><trkpt lat="45.7233622" lon="11.6890053"><ele>83.33333333333333</ele><time>2026-04-04T07:59:24.321Z</time></trkpt><trkpt lat="45.7232986" lon="11.6889827"><ele>83.66666666666667</ele><time>2026-04-04T07:59:25.33Z</time></trkpt><trkpt lat="45.723196" lon="11.6889575"><ele>84.0</ele><time>2026-04-04T07:59:27.331Z</time></trkpt><trkpt lat="45.7231118" lon="11.6889269"><ele>84.0</ele><time>2026-04-04T07:59:29.331Z</time></trkpt><trkpt lat="45.7230348" lon="11.6889063"><ele>84.0</ele><time>2026-04-04T07:59:31.332Z</time></trkpt><trkpt lat="45.7229703" lon="11.6888835"><ele>84.0</ele><time>2026-04-04T07:59:33.326Z</time></trkpt><trkpt lat="45.7228859" lon="11.6888331"><ele>84.0</ele><time>2026-04-04T07:59:35.325Z</time></trkpt><trkpt lat="45.7227891" lon="11.6887881"><ele>84.0</ele><time>2026-04-04T07:59:37.328Z</time></trkpt><trkpt lat="45.722687" lon="11.6887521"><ele>84.0</ele><time>2026-04-04T07:59:39.325Z</time></trkpt><trkpt lat="45.722587" lon="11.6886968"><ele>83.6</ele><time>2026-04-04T07:59:41.334Z</time></trkpt><trkpt lat="45.7224916" lon="11.6886497"><ele>83.2</ele><time>2026-04-04T07:59:43.323Z</time></trkpt><trkpt lat="45.7223919" lon="11.6885996"><ele>82.8</ele><time>2026-04-04T07:59:45.328Z</time></trkpt><trkpt lat="45.7222946" lon="11.6885585"><ele>82.39999999999999</ele><time>2026-04-04T07:59:47.326Z</time></trkpt><trkpt lat="45.7222098" lon="11.6885261"><ele>82.0</ele><time>2026-04-04T07:59:49.328Z</time></trkpt><trkpt lat="45.7221289" lon="11.6885064"><ele>81.99999999999999</ele><time>2026-04-04T07:59:51.336Z</time></trkpt><trkpt lat="45.7220617" lon="11.6884871"><ele>82.0</ele><time>2026-04-04T07:59:53.328Z</time></trkpt><trkpt lat="45.7221063" lon="11.6884136"><ele>82.0</ele><time>2026-04-04T08:15:45.334Z</time></trkpt><trkpt lat="45.7220986" lon="11.688304"><ele>82.0</ele><time>2026-04-04T08:15:50.338Z</time></trkpt><trkpt lat="45.7220981" lon="11.6882093"><ele>82.0</ele><time>2026-04-04T08:15:53.338Z</time></trkpt><trkpt lat="45.7221023" lon="11.6883285"><ele>81.99999999999999</ele><time>2026-04-04T08:17:52.337Z</time></trkpt><trkpt lat="45.7220929" lon="11.6882359"><ele>82.0</ele><time>2026-04-04T08:18:24.339Z</time></trkpt><trkpt lat="45.7220857" lon="11.6883549"><ele>82.0</ele><time>2026-04-04T08:18:48.339Z</time></trkpt><trkpt lat="45.7220967" lon="11.688457"><ele>82.0</ele><time>2026-04-04T08:18:50.327Z</time></trkpt><trkpt lat="45.7220473" lon="11.6885133"><ele>82.0</ele><time>2026-04-04T08:31:52.329Z</time></trkpt><trkpt lat="45.721953" lon="11.6884943"><ele>82.0</ele><time>2026-04-04T08:31:54.325Z</time></trkpt><trkpt lat="45.7218496" lon="11.6884452"><ele>82.0</ele><time>2026-04-04T08:31:56.32Z</time></trkpt><trkpt lat="45.721742" lon="11.6883942"><ele>81.8</ele><time>2026-04-04T08:31:58.324Z</time></trkpt><trkpt lat="45.7216399" lon="11.6883395"><ele>81.6</ele><time>2026-04-04T08:32:00.332Z</time></trkpt><trkpt lat="45.72155" lon="11.6882648"><ele>81.39999999999999</ele><time>2026-04-04T08:32:02.336Z</time></trkpt><trkpt lat="45.7214477" lon="11.6881881"><ele>81.19999999999999</ele><time>2026-04-04T08:32:04.334Z</time></trkpt><trkpt lat="45.7213707" lon="11.6880859"><ele>81.0</ele><time>2026-04-04T08:32:06.334Z</time></trkpt><trkpt lat="45.7213106" lon="11.687974"><ele>81.0</ele><time>2026-04-04T08:32:08.336Z</time></trkpt><trkpt lat="45.721236" lon="11.6879082"><ele>81.0</ele><time>2026-04-04T08:32:10.353Z</time></trkpt><trkpt lat="45.7211182" lon="11.6879238"><ele>81.0</ele><time>2026-04-04T08:32:12.337Z</time></trkpt><trkpt lat="45.7210084" lon="11.6879485"><ele>81.0</ele><time>2026-04-04T08:32:14.34Z</time></trkpt><trkpt lat="45.7208913" lon="11.6879108"><ele>81.0</ele><time>2026-04-04T08:32:16.332Z</time></trkpt><trkpt lat="45.7208164" lon="11.6878663"><ele>80.8</ele><time>2026-04-04T08:32:17.339Z</time></trkpt><trkpt lat="45.720719" lon="11.6878266"><ele>80.6</ele><time>2026-04-04T08:32:18.341Z</time></trkpt><trkpt lat="45.7206146" lon="11.6878033"><ele>80.4</ele><time>2026-04-04T08:32:19.339Z</time></trkpt><trkpt lat="45.7205154" lon="11.6877841"><ele>80.2</ele><time>2026-04-04T08:32:20.339Z</time></trkpt><trkpt lat="45.7204263" lon="11.6877634"><ele>80.0</ele><time>2026-04-04T08:32:21.34Z</time></trkpt><trkpt lat="45.7203399" lon="11.6877275"><ele>80.0</ele><time>2026-04-04T08:32:22.335Z</time></trkpt><trkpt lat="45.7202579" lon="11.6876793"><ele>80.0</ele><time>2026-04-04T08:32:23.344Z</time></trkpt><trkpt lat="45.7201815" lon="11.6876328"><ele>80.0</ele><time>2026-04-04T08:32:24.34Z</time></trkpt><trkpt lat="45.7201072" lon="11.6875964"><ele>80.0</ele><time>2026-04-04T08:32:25.337Z</time></trkpt><trkpt lat="45.7200351" lon="11.6875614"><ele>80.0</ele><time>2026-04-04T08:32:26.34Z</time></trkpt><trkpt lat="45.7199637" lon="11.6875288"><ele>80.0</ele><time>2026-04-04T08:32:27.333Z</time></trkpt><trkpt lat="45.7198919" lon="11.6874978"><ele>80.2</ele><time>2026-04-04T08:32:28.336Z</time></trkpt><trkpt lat="45.719825" lon="11.6874779"><ele>80.4</ele><time>2026-04-04T08:32:29.338Z</time></trkpt><trkpt lat="45.7197217" lon="11.6874558"><ele>80.6</ele><time>2026-04-04T08:32:31.339Z</time></trkpt><trkpt lat="45.7196107" lon="11.6874262"><ele>80.8</ele><time>2026-04-04T08:32:33.334Z</time></trkpt><trkpt lat="45.7194848" lon="11.687394"><ele>81.0</ele><time>2026-04-04T08:32:35.339Z</time></trkpt><trkpt lat="45.719415" lon="11.6873745"><ele>80.66666666666667</ele><time>2026-04-04T08:32:36.338Z</time></trkpt><trkpt lat="45.7193431" lon="11.6873495"><ele>80.33333333333333</ele><time>2026-04-04T08:32:37.338Z</time></trkpt><trkpt lat="45.7192699" lon="11.6873226"><ele>80.0</ele><time>2026-04-04T08:32:38.346Z</time></trkpt><trkpt lat="45.7191934" lon="11.6873008"><ele>79.66666666666666</ele><time>2026-04-04T08:32:39.337Z</time></trkpt><trkpt lat="45.7191196" lon="11.6872968"><ele>79.33333333333333</ele><time>2026-04-04T08:32:40.333Z</time></trkpt><trkpt lat="45.7190402" lon="11.6873073"><ele>79.0</ele><time>2026-04-04T08:32:41.348Z</time></trkpt><trkpt lat="45.7189636" lon="11.6873332"><ele>79.0</ele><time>2026-04-04T08:32:42.336Z</time></trkpt><trkpt lat="45.7188905" lon="11.6873485"><ele>79.0</ele><time>2026-04-04T08:32:43.33Z</time></trkpt><trkpt lat="45.7188248" lon="11.6873533"><ele>79.0</ele><time>2026-04-04T08:32:44.332Z</time></trkpt><trkpt lat="45.7187105" lon="11.6873608"><ele>79.0</ele><time>2026-04-04T08:32:46.336Z</time></trkpt><trkpt lat="45.7186076" lon="11.6873714"><ele>79.0</ele><time>2026-04-04T08:32:48.338Z</time></trkpt><trkpt lat="45.7185037" lon="11.6873947"><ele>78.83333333333333</ele><time>2026-04-04T08:32:50.335Z</time></trkpt><trkpt lat="45.7184377" lon="11.6874128"><ele>78.66666666666666</ele><time>2026-04-04T08:32:51.338Z</time></trkpt><trkpt lat="45.7183584" lon="11.6874301"><ele>78.5</ele><time>2026-04-04T08:32:52.33Z</time></trkpt><trkpt lat="45.7182727" lon="11.6874427"><ele>78.33333333333333</ele><time>2026-04-04T08:32:53.349Z</time></trkpt><trkpt lat="45.7181757" lon="11.6874279"><ele>78.16666666666667</ele><time>2026-04-04T08:32:54.334Z</time></trkpt><trkpt lat="45.7180734" lon="11.6873958"><ele>78.0</ele><time>2026-04-04T08:32:55.339Z</time></trkpt><trkpt lat="45.7179746" lon="11.6873495"><ele>78.0</ele><time>2026-04-04T08:32:56.328Z</time></trkpt><trkpt lat="45.7178733" lon="11.6872887"><ele>78.0</ele><time>2026-04-04T08:32:57.334Z</time></trkpt><trkpt lat="45.7177768" lon="11.6872151"><ele>78.0</ele><time>2026-04-04T08:32:58.328Z</time></trkpt><trkpt lat="45.717694" lon="11.6871261"><ele>78.0</ele><time>2026-04-04T08:32:59.343Z</time></trkpt><trkpt lat="45.7176232" lon="11.6870084"><ele>78.0</ele><time>2026-04-04T08:33:00.338Z</time></trkpt><trkpt lat="45.7175539" lon="11.6869016"><ele>78.0</ele><time>2026-04-04T08:33:01.346Z</time></trkpt><trkpt lat="45.7174849" lon="11.6868011"><ele>78.0</ele><time>2026-04-04T08:33:02.338Z</time></trkpt><trkpt lat="45.7174067" lon="11.6867028"><ele>78.0</ele><time>2026-04-04T08:33:03.341Z</time></trkpt><trkpt lat="45.7173333" lon="11.6866093"><ele>78.0</ele><time>2026-04-04T08:33:04.336Z</time></trkpt><trkpt lat="45.7172612" lon="11.6865231"><ele>78.0</ele><time>2026-04-04T08:33:05.344Z</time></trkpt><trkpt lat="45.7171922" lon="11.6864375"><ele>78.0</ele><time>2026-04-04T08:33:06.338Z</time></trkpt><trkpt lat="45.7171293" lon="11.6863536"><ele>78.0</ele><time>2026-04-04T08:33:07.341Z</time></trkpt><trkpt lat="45.7170722" lon="11.6862652"><ele>78.0</ele><time>2026-04-04T08:33:08.334Z</time></trkpt><trkpt lat="45.7170176" lon="11.6861685"><ele>78.0</ele><time>2026-04-04T08:33:09.344Z</time></trkpt><trkpt lat="45.7169696" lon="11.6860668"><ele>78.0</ele><time>2026-04-04T08:33:10.335Z</time></trkpt><trkpt lat="45.716928" lon="11.6859573"><ele>78.0</ele><time>2026-04-04T08:33:11.34Z</time></trkpt><trkpt lat="45.7168869" lon="11.6858411"><ele>78.2</ele><time>2026-04-04T08:33:12.345Z</time></trkpt><trkpt lat="45.7168424" lon="11.685711"><ele>78.4</ele><time>2026-04-04T08:33:13.339Z</time></trkpt><trkpt lat="45.7167951" lon="11.6855782"><ele>78.60000000000001</ele><time>2026-04-04T08:33:14.343Z</time></trkpt><trkpt lat="45.7167456" lon="11.6854404"><ele>78.8</ele><time>2026-04-04T08:33:15.335Z</time></trkpt><trkpt lat="45.7166933" lon="11.6852979"><ele>79.0</ele><time>2026-04-04T08:33:16.334Z</time></trkpt><trkpt lat="45.7166332" lon="11.6851575"><ele>78.5</ele><time>2026-04-04T08:33:17.332Z</time></trkpt><trkpt lat="45.7165677" lon="11.6850347"><ele>78.0</ele><time>2026-04-04T08:33:18.335Z</time></trkpt><trkpt lat="45.7164918" lon="11.6849188"><ele>77.5</ele><time>2026-04-04T08:33:19.333Z</time></trkpt><trkpt lat="45.7164011" lon="11.6847968"><ele>77.0</ele><time>2026-04-04T08:33:20.336Z</time></trkpt><trkpt lat="45.7163012" lon="11.684685"><ele>77.0</ele><time>2026-04-04T08:33:21.329Z</time></trkpt><trkpt lat="45.7161835" lon="11.6845907"><ele>77.0</ele><time>2026-04-04T08:33:22.34Z</time></trkpt><trkpt lat="45.7160408" lon="11.6845155"><ele>77.0</ele><time>2026-04-04T08:33:23.343Z</time></trkpt><trkpt lat="45.7158939" lon="11.684468"><ele>77.0</ele><time>2026-04-04T08:33:24.33Z</time></trkpt><trkpt lat="45.7157824" lon="11.6844289"><ele>76.6</ele><time>2026-04-04T08:33:25.342Z</time></trkpt><trkpt lat="45.7156851" lon="11.6843659"><ele>76.2</ele><time>2026-04-04T08:33:26.338Z</time></trkpt><trkpt lat="45.7155964" lon="11.6843159"><ele>75.8</ele><time>2026-04-04T08:33:27.34Z</time></trkpt><trkpt lat="45.7155045" lon="11.6842626"><ele>75.4</ele><time>2026-04-04T08:33:28.332Z</time></trkpt><trkpt lat="45.7154083" lon="11.6842057"><ele>75.0</ele><time>2026-04-04T08:33:29.339Z</time></trkpt><trkpt lat="45.7153126" lon="11.6841285"><ele>75.2</ele><time>2026-04-04T08:33:30.324Z</time></trkpt><trkpt lat="45.7152109" lon="11.6840582"><ele>75.4</ele><time>2026-04-04T08:33:31.343Z</time></trkpt><trkpt lat="45.7151071" lon="11.6839894"><ele>75.6</ele><time>2026-04-04T08:33:32.337Z</time></trkpt><trkpt lat="45.7150153" lon="11.6839353"><ele>75.8</ele><time>2026-04-04T08:33:33.339Z</time></trkpt><trkpt lat="45.714934" lon="11.6838864"><ele>76.0</ele><time>2026-04-04T08:33:34.329Z</time></trkpt><trkpt lat="45.7148669" lon="11.6838423"><ele>76.0</ele><time>2026-04-04T08:33:35.335Z</time></trkpt><trkpt lat="45.7148095" lon="11.6837985"><ele>76.0</ele><time>2026-04-04T08:33:36.335Z</time></trkpt><trkpt lat="45.7147124" lon="11.6836938"><ele>76.0</ele><time>2026-04-04T08:33:38.33Z</time></trkpt><trkpt lat="45.7146824" lon="11.6835518"><ele>76.0</ele><time>2026-04-04T08:33:40.343Z</time></trkpt><trkpt lat="45.7147088" lon="11.6834632"><ele>76.0</ele><time>2026-04-04T08:33:41.327Z</time></trkpt><trkpt lat="45.7147934" lon="11.6833435"><ele>75.8</ele><time>2026-04-04T08:33:43.343Z</time></trkpt><trkpt lat="45.7148888" lon="11.6832624"><ele>75.6</ele><time>2026-04-04T08:33:45.332Z</time></trkpt><trkpt lat="45.7149853" lon="11.683194"><ele>75.4</ele><time>2026-04-04T08:33:47.332Z</time></trkpt><trkpt lat="45.7150987" lon="11.6830981"><ele>75.2</ele><time>2026-04-04T08:33:49.335Z</time></trkpt><trkpt lat="45.7151697" lon="11.6830452"><ele>75.0</ele><time>2026-04-04T08:33:50.337Z</time></trkpt><trkpt lat="45.715261" lon="11.6829973"><ele>75.0</ele><time>2026-04-04T08:33:51.321Z</time></trkpt><trkpt lat="45.7153491" lon="11.6829713"><ele>75.0</ele><time>2026-04-04T08:33:52.328Z</time></trkpt><trkpt lat="45.7154199" lon="11.6829557"><ele>75.0</ele><time>2026-04-04T08:33:53.338Z</time></trkpt><trkpt lat="45.7154974" lon="11.6829846"><ele>75.0</ele><time>2026-04-04T08:33:54.329Z</time></trkpt><trkpt lat="45.7155635" lon="11.6830559"><ele>75.0</ele><time>2026-04-04T08:33:55.325Z</time></trkpt><trkpt lat="45.7155986" lon="11.6831926"><ele>75.0</ele><time>2026-04-04T08:33:56.323Z</time></trkpt><trkpt lat="45.7156046" lon="11.6833458"><ele>75.0</ele><time>2026-04-04T08:33:57.327Z</time></trkpt><trkpt lat="45.7155906" lon="11.6834741"><ele>75.0</ele><time>2026-04-04T08:33:58.332Z</time></trkpt><trkpt lat="45.7155413" lon="11.6835778"><ele>75.0</ele><time>2026-04-04T08:33:59.327Z</time></trkpt><trkpt lat="45.7154506" lon="11.6836168"><ele>75.0</ele><time>2026-04-04T08:34:00.329Z</time></trkpt><trkpt lat="45.715356" lon="11.6835882"><ele>75.0</ele><time>2026-04-04T08:34:01.331Z</time></trkpt><trkpt lat="45.7152319" lon="11.6834918"><ele>75.8</ele><time>2026-04-04T08:34:02.321Z</time></trkpt><trkpt lat="45.7151069" lon="11.68341"><ele>76.6</ele><time>2026-04-04T08:34:03.317Z</time></trkpt><trkpt lat="45.7150041" lon="11.6833599"><ele>77.4</ele><time>2026-04-04T08:34:04.322Z</time></trkpt><trkpt lat="45.7149088" lon="11.6833321"><ele>78.2</ele><time>2026-04-04T08:34:05.331Z</time></trkpt><trkpt lat="45.7148268" lon="11.6833383"><ele>79.0</ele><time>2026-04-04T08:34:06.327Z</time></trkpt><trkpt lat="45.7147636" lon="11.683356"><ele>79.0</ele><time>2026-04-04T08:34:07.33Z</time></trkpt><trkpt lat="45.7146539" lon="11.6833548"><ele>79.0</ele><time>2026-04-04T08:34:09.327Z</time></trkpt><trkpt lat="45.714581" lon="11.6833519"><ele>79.0</ele><time>2026-04-04T08:34:11.337Z</time></trkpt><trkpt lat="45.7145319" lon="11.6834489"><ele>79.0</ele><time>2026-04-04T08:34:14.346Z</time></trkpt><trkpt lat="45.7146286" lon="11.6834926"><ele>79.0</ele><time>2026-04-04T08:34:16.331Z</time></trkpt><trkpt lat="45.7147191" lon="11.6834659"><ele>79.0</ele><time>2026-04-04T08:34:17.331Z</time></trkpt><trkpt lat="45.7148228" lon="11.6834046"><ele>79.0</ele><time>2026-04-04T08:34:18.331Z</time></trkpt><trkpt lat="45.7149139" lon="11.6833445"><ele>79.0</ele><time>2026-04-04T08:34:19.329Z</time></trkpt><trkpt lat="45.7149876" lon="11.6832688"><ele>79.0</ele><time>2026-04-04T08:34:20.328Z</time></trkpt><trkpt lat="45.7150607" lon="11.6831822"><ele>79.0</ele><time>2026-04-04T08:34:21.324Z</time></trkpt><trkpt lat="45.7151369" lon="11.6831082"><ele>79.0</ele><time>2026-04-04T08:34:22.325Z</time></trkpt><trkpt lat="45.7152205" lon="11.6830489"><ele>79.0</ele><time>2026-04-04T08:34:23.331Z</time></trkpt><trkpt lat="45.7153095" lon="11.6830195"><ele>79.0</ele><time>2026-04-04T08:34:24.335Z</time></trkpt><trkpt lat="45.715396" lon="11.6829796"><ele>79.0</ele><time>2026-04-04T08:34:25.334Z</time></trkpt><trkpt lat="45.7154732" lon="11.6829567"><ele>79.0</ele><time>2026-04-04T08:34:26.344Z</time></trkpt><trkpt lat="45.715541" lon="11.6829881"><ele>79.0</ele><time>2026-04-04T08:34:27.34Z</time></trkpt><trkpt lat="45.7155956" lon="11.6830866"><ele>78.2</ele><time>2026-04-04T08:34:28.337Z</time></trkpt><trkpt lat="45.7156185" lon="11.6832357"><ele>77.4</ele><time>2026-04-04T08:34:29.337Z</time></trkpt><trkpt lat="45.7156023" lon="11.6833827"><ele>76.6</ele><time>2026-04-04T08:34:30.33Z</time></trkpt><trkpt lat="45.7155461" lon="11.6835043"><ele>75.8</ele><time>2026-04-04T08:34:31.329Z</time></trkpt><trkpt lat="45.7154718" lon="11.6835663"><ele>75.0</ele><time>2026-04-04T08:34:32.323Z</time></trkpt><trkpt lat="45.7153769" lon="11.683567"><ele>75.0</ele><time>2026-04-04T08:34:33.33Z</time></trkpt><trkpt lat="45.715258" lon="11.6835122"><ele>75.0</ele><time>2026-04-04T08:34:34.327Z</time></trkpt><trkpt lat="45.7151417" lon="11.6834631"><ele>75.0</ele><time>2026-04-04T08:34:35.321Z</time></trkpt><trkpt lat="45.7150356" lon="11.6834126"><ele>75.0</ele><time>2026-04-04T08:34:36.335Z</time></trkpt><trkpt lat="45.7149789" lon="11.6833505"><ele>75.0</ele><time>2026-04-04T08:34:37.335Z</time></trkpt><trkpt lat="45.715" lon="11.6831776"><ele>75.0</ele><time>2026-04-04T08:34:39.338Z</time></trkpt><trkpt lat="45.7150607" lon="11.6831044"><ele>75.0</ele><time>2026-04-04T08:34:40.336Z</time></trkpt><trkpt lat="45.7151385" lon="11.683042"><ele>75.0</ele><time>2026-04-04T08:34:41.332Z</time></trkpt><trkpt lat="45.7152281" lon="11.6830034"><ele>75.0</ele><time>2026-04-04T08:34:42.338Z</time></trkpt><trkpt lat="45.715323" lon="11.6829814"><ele>75.0</ele><time>2026-04-04T08:34:43.337Z</time></trkpt><trkpt lat="45.7154092" lon="11.6829564"><ele>75.0</ele><time>2026-04-04T08:34:44.332Z</time></trkpt><trkpt lat="45.715482" lon="11.682945"><ele>75.0</ele><time>2026-04-04T08:34:45.341Z</time></trkpt><trkpt lat="45.7155443" lon="11.6829833"><ele>75.0</ele><time>2026-04-04T08:34:46.331Z</time></trkpt><trkpt lat="45.7155782" lon="11.6830835"><ele>75.0</ele><time>2026-04-04T08:34:47.328Z</time></trkpt><trkpt lat="45.7155903" lon="11.6832375"><ele>75.0</ele><time>2026-04-04T08:34:48.317Z</time></trkpt><trkpt lat="45.7155839" lon="11.6833703"><ele>75.0</ele><time>2026-04-04T08:34:49.332Z</time></trkpt><trkpt lat="45.7155468" lon="11.6834697"><ele>75.0</ele><time>2026-04-04T08:34:50.325Z</time></trkpt><trkpt lat="45.7154839" lon="11.6835378"><ele>75.0</ele><time>2026-04-04T08:34:51.339Z</time></trkpt><trkpt lat="45.715405" lon="11.6835516"><ele>75.0</ele><time>2026-04-04T08:34:52.314Z</time></trkpt><trkpt lat="45.7153257" lon="11.6835423"><ele>75.0</ele><time>2026-04-04T08:34:53.342Z</time></trkpt><trkpt lat="45.7152541" lon="11.683519"><ele>75.0</ele><time>2026-04-04T08:34:54.33Z</time></trkpt><trkpt lat="45.7151582" lon="11.6834692"><ele>75.0</ele><time>2026-04-04T08:34:56.334Z</time></trkpt><trkpt lat="45.715081" lon="11.6834138"><ele>75.0</ele><time>2026-04-04T08:34:58.331Z</time></trkpt><trkpt lat="45.7150428" lon="11.6833268"><ele>75.0</ele><time>2026-04-04T08:37:06.347Z</time></trkpt><trkpt lat="45.7150379" lon="11.6832169"><ele>75.0</ele><time>2026-04-04T08:37:09.334Z</time></trkpt><trkpt lat="45.715088" lon="11.6831"><ele>75.0</ele><time>2026-04-04T08:37:11.333Z</time></trkpt><trkpt lat="45.7152184" lon="11.6830196"><ele>75.0</ele><time>2026-04-04T08:37:13.333Z</time></trkpt><trkpt lat="45.7153087" lon="11.6829794"><ele>75.0</ele><time>2026-04-04T08:37:14.337Z</time></trkpt><trkpt lat="45.7153938" lon="11.6829595"><ele>75.0</ele><time>2026-04-04T08:37:15.335Z</time></trkpt><trkpt lat="45.7154708" lon="11.6829741"><ele>75.0</ele><time>2026-04-04T08:37:16.345Z</time></trkpt><trkpt lat="45.7155321" lon="11.6830489"><ele>75.0</ele><time>2026-04-04T08:37:17.334Z</time></trkpt><trkpt lat="45.7155675" lon="11.6831962"><ele>75.0</ele><time>2026-04-04T08:37:18.334Z</time></trkpt><trkpt lat="45.7155773" lon="11.6833494"><ele>75.0</ele><time>2026-04-04T08:37:19.334Z</time></trkpt><trkpt lat="45.7155578" lon="11.6834897"><ele>75.0</ele><time>2026-04-04T08:37:20.346Z</time></trkpt><trkpt lat="45.7155124" lon="11.6835796"><ele>75.0</ele><time>2026-04-04T08:37:21.335Z</time></trkpt><trkpt lat="45.7154213" lon="11.6836035"><ele>75.0</ele><time>2026-04-04T08:37:22.329Z</time></trkpt><trkpt lat="45.7153055" lon="11.683563"><ele>75.0</ele><time>2026-04-04T08:37:23.334Z</time></trkpt><trkpt lat="45.7151983" lon="11.683498"><ele>75.0</ele><time>2026-04-04T08:37:24.328Z</time></trkpt><trkpt lat="45.7151072" lon="11.6834436"><ele>75.66666666666667</ele><time>2026-04-04T08:37:25.324Z</time></trkpt><trkpt lat="45.7150332" lon="11.6833956"><ele>76.33333333333333</ele><time>2026-04-04T08:37:26.332Z</time></trkpt><trkpt lat="45.7149823" lon="11.683327"><ele>77.0</ele><time>2026-04-04T08:37:27.331Z</time></trkpt><trkpt lat="45.7150117" lon="11.6831516"><ele>77.66666666666666</ele><time>2026-04-04T08:37:29.332Z</time></trkpt><trkpt lat="45.7150629" lon="11.6830807"><ele>78.33333333333333</ele><time>2026-04-04T08:37:30.331Z</time></trkpt><trkpt lat="45.7151323" lon="11.6830185"><ele>79.0</ele><time>2026-04-04T08:37:31.328Z</time></trkpt><trkpt lat="45.7152239" lon="11.6829827"><ele>78.33333333333333</ele><time>2026-04-04T08:37:32.325Z</time></trkpt><trkpt lat="45.7153282" lon="11.6829647"><ele>77.66666666666666</ele><time>2026-04-04T08:37:33.329Z</time></trkpt><trkpt lat="45.7154106" lon="11.6829401"><ele>77.0</ele><time>2026-04-04T08:37:34.323Z</time></trkpt><trkpt lat="45.7154839" lon="11.6829419"><ele>76.33333333333333</ele><time>2026-04-04T08:37:35.329Z</time></trkpt><trkpt lat="45.7155466" lon="11.6829979"><ele>75.66666666666667</ele><time>2026-04-04T08:37:36.326Z</time></trkpt><trkpt lat="45.7155802" lon="11.6831523"><ele>75.0</ele><time>2026-04-04T08:37:37.324Z</time></trkpt><trkpt lat="45.715588" lon="11.6833121"><ele>75.0</ele><time>2026-04-04T08:37:38.316Z</time></trkpt><trkpt lat="45.715562" lon="11.6834559"><ele>75.0</ele><time>2026-04-04T08:37:39.325Z</time></trkpt><trkpt lat="45.7155014" lon="11.6835585"><ele>75.0</ele><time>2026-04-04T08:37:40.332Z</time></trkpt><trkpt lat="45.7153879" lon="11.6835959"><ele>75.0</ele><time>2026-04-04T08:37:41.322Z</time></trkpt><trkpt lat="45.7152648" lon="11.6835631"><ele>75.0</ele><time>2026-04-04T08:37:42.331Z</time></trkpt><trkpt lat="45.7151345" lon="11.6835075"><ele>75.8</ele><time>2026-04-04T08:37:43.322Z</time></trkpt><trkpt lat="45.7150202" lon="11.6834402"><ele>76.6</ele><time>2026-04-04T08:37:44.323Z</time></trkpt><trkpt lat="45.7149284" lon="11.6833865"><ele>77.4</ele><time>2026-04-04T08:37:45.328Z</time></trkpt><trkpt lat="45.7148959" lon="11.6832593"><ele>78.2</ele><time>2026-04-04T08:37:47.335Z</time></trkpt><trkpt lat="45.7149593" lon="11.6831873"><ele>79.0</ele><time>2026-04-04T08:37:48.322Z</time></trkpt><trkpt lat="45.7150455" lon="11.6831271"><ele>79.0</ele><time>2026-04-04T08:37:49.326Z</time></trkpt><trkpt lat="45.7151422" lon="11.6830758"><ele>79.0</ele><time>2026-04-04T08:37:50.334Z</time></trkpt><trkpt lat="45.7152509" lon="11.683027"><ele>79.0</ele><time>2026-04-04T08:37:51.325Z</time></trkpt><trkpt lat="45.7153498" lon="11.6829845"><ele>79.0</ele><time>2026-04-04T08:37:52.33Z</time></trkpt><trkpt lat="45.715432" lon="11.6829547"><ele>79.0</ele><time>2026-04-04T08:37:53.34Z</time></trkpt><trkpt lat="45.715501" lon="11.6829708"><ele>78.2</ele><time>2026-04-04T08:37:54.336Z</time></trkpt><trkpt lat="45.7155563" lon="11.6830571"><ele>77.4</ele><time>2026-04-04T08:37:55.33Z</time></trkpt><trkpt lat="45.715596" lon="11.6832037"><ele>76.6</ele><time>2026-04-04T08:37:56.329Z</time></trkpt><trkpt lat="45.7155924" lon="11.6833597"><ele>75.8</ele><time>2026-04-04T08:37:57.33Z</time></trkpt><trkpt lat="45.7155555" lon="11.6835033"><ele>75.0</ele><time>2026-04-04T08:37:58.332Z</time></trkpt><trkpt lat="45.7154871" lon="11.6835814"><ele>75.0</ele><time>2026-04-04T08:37:59.337Z</time></trkpt><trkpt lat="45.7153826" lon="11.6835935"><ele>75.0</ele><time>2026-04-04T08:38:00.328Z</time></trkpt><trkpt lat="45.7152501" lon="11.6835332"><ele>75.0</ele><time>2026-04-04T08:38:01.328Z</time></trkpt><trkpt lat="45.7151343" lon="11.6834697"><ele>75.0</ele><time>2026-04-04T08:38:02.315Z</time></trkpt><trkpt lat="45.7150316" lon="11.6834162"><ele>75.66666666666667</ele><time>2026-04-04T08:38:03.326Z</time></trkpt><trkpt lat="45.7149522" lon="11.6833779"><ele>76.33333333333333</ele><time>2026-04-04T08:38:05.32Z</time></trkpt><trkpt lat="45.714911" lon="11.6833006"><ele>77.0</ele><time>2026-04-04T08:38:09.321Z</time></trkpt><trkpt lat="45.714959" lon="11.6832177"><ele>77.66666666666666</ele><time>2026-04-04T08:46:13.326Z</time></trkpt><trkpt lat="45.7149688" lon="11.6833128"><ele>78.33333333333333</ele><time>2026-04-04T08:46:17.323Z</time></trkpt><trkpt lat="45.7148875" lon="11.6833505"><ele>79.0</ele><time>2026-04-04T08:46:20.328Z</time></trkpt><trkpt lat="45.7148138" lon="11.6834045"><ele>79.0</ele><time>2026-04-04T08:46:33.333Z</time></trkpt><trkpt lat="45.7147448" lon="11.6833971"><ele>79.0</ele><time>2026-04-04T08:46:49.329Z</time></trkpt><trkpt lat="45.7146594" lon="11.6833877"><ele>79.0</ele><time>2026-04-04T08:46:52.322Z</time></trkpt><trkpt lat="45.7145631" lon="11.6833341"><ele>79.0</ele><time>2026-04-04T08:46:54.324Z</time></trkpt><trkpt lat="45.7145011" lon="11.6831823"><ele>79.0</ele><time>2026-04-04T08:46:56.324Z</time></trkpt><trkpt lat="45.7144818" lon="11.6830819"><ele>79.0</ele><time>2026-04-04T08:46:57.324Z</time></trkpt><trkpt lat="45.7144626" lon="11.6829891"><ele>79.0</ele><time>2026-04-04T08:46:58.324Z</time></trkpt><trkpt lat="45.7144382" lon="11.6828919"><ele>79.0</ele><time>2026-04-04T08:46:59.321Z</time></trkpt><trkpt lat="45.7144136" lon="11.682791"><ele>79.0</ele><time>2026-04-04T08:47:00.322Z</time></trkpt><trkpt lat="45.7143942" lon="11.6826834"><ele>79.0</ele><time>2026-04-04T08:47:01.328Z</time></trkpt><trkpt lat="45.7143694" lon="11.6825832"><ele>79.0</ele><time>2026-04-04T08:47:02.32Z</time></trkpt><trkpt lat="45.7143413" lon="11.6824681"><ele>78.33333333333333</ele><time>2026-04-04T08:47:03.316Z</time></trkpt><trkpt lat="45.7143108" lon="11.6823509"><ele>77.66666666666666</ele><time>2026-04-04T08:47:04.318Z</time></trkpt><trkpt lat="45.7142836" lon="11.6822418"><ele>77.0</ele><time>2026-04-04T08:47:05.313Z</time></trkpt><trkpt lat="45.7142632" lon="11.6821413"><ele>76.33333333333333</ele><time>2026-04-04T08:47:06.324Z</time></trkpt><trkpt lat="45.7142314" lon="11.6820529"><ele>75.66666666666667</ele><time>2026-04-04T08:47:07.318Z</time></trkpt><trkpt lat="45.7141819" lon="11.6819842"><ele>75.0</ele><time>2026-04-04T08:47:08.307Z</time></trkpt><trkpt lat="45.7141208" lon="11.6819331"><ele>75.0</ele><time>2026-04-04T08:47:09.31Z</time></trkpt><trkpt lat="45.7140474" lon="11.6819115"><ele>75.0</ele><time>2026-04-04T08:47:10.327Z</time></trkpt><trkpt lat="45.7139541" lon="11.6819263"><ele>75.0</ele><time>2026-04-04T08:47:11.312Z</time></trkpt><trkpt lat="45.7138579" lon="11.6819315"><ele>75.0</ele><time>2026-04-04T08:47:12.317Z</time></trkpt><trkpt lat="45.7137803" lon="11.6819008"><ele>75.0</ele><time>2026-04-04T08:47:13.32Z</time></trkpt><trkpt lat="45.7137135" lon="11.6818339"><ele>75.0</ele><time>2026-04-04T08:47:14.318Z</time></trkpt><trkpt lat="45.7136454" lon="11.6817466"><ele>75.0</ele><time>2026-04-04T08:47:15.324Z</time></trkpt><trkpt lat="45.713584" lon="11.6816453"><ele>75.0</ele><time>2026-04-04T08:47:16.317Z</time></trkpt><trkpt lat="45.7135178" lon="11.6815369"><ele>75.0</ele><time>2026-04-04T08:47:17.319Z</time></trkpt><trkpt lat="45.7134665" lon="11.6814052"><ele>75.0</ele><time>2026-04-04T08:47:18.314Z</time></trkpt><trkpt lat="45.7134319" lon="11.6812393"><ele>75.0</ele><time>2026-04-04T08:47:19.318Z</time></trkpt><trkpt lat="45.7133935" lon="11.6810732"><ele>75.0</ele><time>2026-04-04T08:47:20.32Z</time></trkpt><trkpt lat="45.7133472" lon="11.6809273"><ele>75.0</ele><time>2026-04-04T08:47:21.308Z</time></trkpt><trkpt lat="45.7132877" lon="11.680794"><ele>75.0</ele><time>2026-04-04T08:47:22.316Z</time></trkpt><trkpt lat="45.7132194" lon="11.6806732"><ele>75.0</ele><time>2026-04-04T08:47:23.325Z</time></trkpt><trkpt lat="45.7131534" lon="11.6805634"><ele>75.0</ele><time>2026-04-04T08:47:24.324Z</time></trkpt><trkpt lat="45.7130962" lon="11.6804515"><ele>75.0</ele><time>2026-04-04T08:47:25.321Z</time></trkpt><trkpt lat="45.7130351" lon="11.6803418"><ele>75.0</ele><time>2026-04-04T08:47:26.321Z</time></trkpt><trkpt lat="45.7129712" lon="11.68024"><ele>75.0</ele><time>2026-04-04T08:47:27.327Z</time></trkpt><trkpt lat="45.7129026" lon="11.6801411"><ele>75.0</ele><time>2026-04-04T08:47:28.317Z</time></trkpt><trkpt lat="45.7128276" lon="11.6800355"><ele>75.0</ele><time>2026-04-04T08:47:29.317Z</time></trkpt><trkpt lat="45.712745" lon="11.6799345"><ele>74.8</ele><time>2026-04-04T08:47:30.322Z</time></trkpt><trkpt lat="45.7126757" lon="11.6798479"><ele>74.6</ele><time>2026-04-04T08:47:31.326Z</time></trkpt><trkpt lat="45.7126149" lon="11.6797644"><ele>74.4</ele><time>2026-04-04T08:47:32.322Z</time></trkpt><trkpt lat="45.7125156" lon="11.6796751"><ele>74.2</ele><time>2026-04-04T08:47:34.312Z</time></trkpt><trkpt lat="45.7124265" lon="11.67961"><ele>74.0</ele><time>2026-04-04T08:47:36.315Z</time></trkpt><trkpt lat="45.7123496" lon="11.6795606"><ele>74.0</ele><time>2026-04-04T08:47:39.314Z</time></trkpt><trkpt lat="45.7122881" lon="11.6795355"><ele>74.0</ele><time>2026-04-04T08:47:41.318Z</time></trkpt><trkpt lat="45.7122186" lon="11.6795045"><ele>74.0</ele><time>2026-04-04T08:47:43.318Z</time></trkpt><trkpt lat="45.7121356" lon="11.6794758"><ele>74.0</ele><time>2026-04-04T08:47:45.321Z</time></trkpt><trkpt lat="45.7120262" lon="11.6794477"><ele>74.0</ele><time>2026-04-04T08:47:47.319Z</time></trkpt><trkpt lat="45.7119084" lon="11.6793772"><ele>74.33333333333334</ele><time>2026-04-04T08:47:49.32Z</time></trkpt><trkpt lat="45.711854" lon="11.6793253"><ele>74.66666666666667</ele><time>2026-04-04T08:47:50.32Z</time></trkpt><trkpt lat="45.7117924" lon="11.6792775"><ele>75.0</ele><time>2026-04-04T08:47:51.314Z</time></trkpt><trkpt lat="45.7117176" lon="11.6792618"><ele>75.33333333333333</ele><time>2026-04-04T08:47:52.315Z</time></trkpt><trkpt lat="45.7116278" lon="11.6792625"><ele>75.66666666666666</ele><time>2026-04-04T08:47:53.324Z</time></trkpt><trkpt lat="45.7115184" lon="11.6793014"><ele>76.0</ele><time>2026-04-04T08:47:54.32Z</time></trkpt><trkpt lat="45.7114056" lon="11.6793569"><ele>75.6</ele><time>2026-04-04T08:47:55.315Z</time></trkpt><trkpt lat="45.7112895" lon="11.6794341"><ele>75.19999999999999</ele><time>2026-04-04T08:47:56.32Z</time></trkpt><trkpt lat="45.7111793" lon="11.6794982"><ele>74.80000000000001</ele><time>2026-04-04T08:47:57.315Z</time></trkpt><trkpt lat="45.7110832" lon="11.6795534"><ele>74.4</ele><time>2026-04-04T08:47:58.32Z</time></trkpt><trkpt lat="45.7109974" lon="11.6796019"><ele>74.0</ele><time>2026-04-04T08:47:59.323Z</time></trkpt><trkpt lat="45.7109125" lon="11.6796439"><ele>74.0</ele><time>2026-04-04T08:48:00.324Z</time></trkpt><trkpt lat="45.7108361" lon="11.6796976"><ele>74.0</ele><time>2026-04-04T08:48:01.319Z</time></trkpt><trkpt lat="45.7107623" lon="11.6797623"><ele>74.0</ele><time>2026-04-04T08:48:02.32Z</time></trkpt><trkpt lat="45.7106926" lon="11.6798371"><ele>74.0</ele><time>2026-04-04T08:48:03.321Z</time></trkpt><trkpt lat="45.71062" lon="11.6799087"><ele>74.0</ele><time>2026-04-04T08:48:04.32Z</time></trkpt><trkpt lat="45.7105524" lon="11.6799938"><ele>74.0</ele><time>2026-04-04T08:48:05.325Z</time></trkpt><trkpt lat="45.7104908" lon="11.6800745"><ele>74.0</ele><time>2026-04-04T08:48:06.317Z</time></trkpt><trkpt lat="45.7104315" lon="11.6801415"><ele>74.0</ele><time>2026-04-04T08:48:07.326Z</time></trkpt><trkpt lat="45.7103829" lon="11.6802159"><ele>74.0</ele><time>2026-04-04T08:48:08.322Z</time></trkpt><trkpt lat="45.7102825" lon="11.6803453"><ele>74.0</ele><time>2026-04-04T08:48:10.32Z</time></trkpt><trkpt lat="45.710228" lon="11.6804051"><ele>74.0</ele><time>2026-04-04T08:48:11.317Z</time></trkpt><trkpt lat="45.710174" lon="11.6804636"><ele>74.0</ele><time>2026-04-04T08:48:12.32Z</time></trkpt><trkpt lat="45.7100978" lon="11.6805236"><ele>73.83333333333334</ele><time>2026-04-04T08:48:14.333Z</time></trkpt><trkpt lat="45.7100165" lon="11.6805887"><ele>73.66666666666667</ele><time>2026-04-04T08:48:17.324Z</time></trkpt><trkpt lat="45.7099075" lon="11.680635"><ele>73.5</ele><time>2026-04-04T08:48:19.326Z</time></trkpt><trkpt lat="45.7098406" lon="11.6806707"><ele>73.33333333333333</ele><time>2026-04-04T08:48:20.319Z</time></trkpt><trkpt lat="45.7097657" lon="11.6807008"><ele>73.16666666666666</ele><time>2026-04-04T08:48:21.33Z</time></trkpt><trkpt lat="45.7096934" lon="11.6807277"><ele>73.0</ele><time>2026-04-04T08:48:22.319Z</time></trkpt><trkpt lat="45.7096293" lon="11.680753"><ele>73.0</ele><time>2026-04-04T08:48:23.328Z</time></trkpt><trkpt lat="45.709562" lon="11.680787"><ele>73.0</ele><time>2026-04-04T08:48:24.32Z</time></trkpt><trkpt lat="45.7094446" lon="11.6808181"><ele>73.0</ele><time>2026-04-04T08:48:26.322Z</time></trkpt><trkpt lat="45.7093338" lon="11.6808084"><ele>73.0</ele><time>2026-04-04T08:48:28.319Z</time></trkpt><trkpt lat="45.709266" lon="11.6808019"><ele>73.0</ele><time>2026-04-04T08:48:29.319Z</time></trkpt><trkpt lat="45.7091996" lon="11.6807842"><ele>73.0</ele><time>2026-04-04T08:48:30.321Z</time></trkpt><trkpt lat="45.7091343" lon="11.6807474"><ele>72.83333333333333</ele><time>2026-04-04T08:48:31.321Z</time></trkpt><trkpt lat="45.7090705" lon="11.6807136"><ele>72.66666666666666</ele><time>2026-04-04T08:48:32.32Z</time></trkpt><trkpt lat="45.7090079" lon="11.6806815"><ele>72.5</ele><time>2026-04-04T08:48:33.321Z</time></trkpt><trkpt lat="45.7088941" lon="11.6806409"><ele>72.33333333333333</ele><time>2026-04-04T08:48:35.314Z</time></trkpt><trkpt lat="45.7088316" lon="11.6806146"><ele>72.16666666666667</ele><time>2026-04-04T08:48:36.319Z</time></trkpt><trkpt lat="45.7087621" lon="11.6805924"><ele>72.0</ele><time>2026-04-04T08:48:37.327Z</time></trkpt><trkpt lat="45.7087045" lon="11.6805531"><ele>72.0</ele><time>2026-04-04T08:48:38.312Z</time></trkpt><trkpt lat="45.7085817" lon="11.6805043"><ele>72.0</ele><time>2026-04-04T08:48:40.305Z</time></trkpt><trkpt lat="45.7085111" lon="11.680517"><ele>72.0</ele><time>2026-04-04T08:48:41.315Z</time></trkpt><trkpt lat="45.7084433" lon="11.6805338"><ele>72.0</ele><time>2026-04-04T08:48:42.314Z</time></trkpt><trkpt lat="45.7083758" lon="11.6805456"><ele>72.0</ele><time>2026-04-04T08:48:43.314Z</time></trkpt><trkpt lat="45.7083066" lon="11.6805492"><ele>72.0</ele><time>2026-04-04T08:48:44.319Z</time></trkpt><trkpt lat="45.708236" lon="11.6805462"><ele>72.42857142857143</ele><time>2026-04-04T08:48:45.318Z</time></trkpt><trkpt lat="45.7081686" lon="11.6805504"><ele>72.85714285714286</ele><time>2026-04-04T08:48:46.315Z</time></trkpt><trkpt lat="45.7081016" lon="11.6805537"><ele>73.28571428571428</ele><time>2026-04-04T08:48:47.32Z</time></trkpt><trkpt lat="45.7080349" lon="11.6805577"><ele>73.71428571428572</ele><time>2026-04-04T08:48:48.316Z</time></trkpt><trkpt lat="45.7079662" lon="11.6805585"><ele>74.14285714285714</ele><time>2026-04-04T08:48:49.315Z</time></trkpt><trkpt lat="45.7079026" lon="11.6805618"><ele>74.57142857142857</ele><time>2026-04-04T08:48:50.315Z</time></trkpt><trkpt lat="45.7078376" lon="11.6805639"><ele>75.0</ele><time>2026-04-04T08:48:51.319Z</time></trkpt><trkpt lat="45.7077729" lon="11.6805731"><ele>75.5</ele><time>2026-04-04T08:48:52.32Z</time></trkpt><trkpt lat="45.7076485" lon="11.680575"><ele>76.0</ele><time>2026-04-04T08:48:54.318Z</time></trkpt><trkpt lat="45.7075268" lon="11.6805962"><ele>76.5</ele><time>2026-04-04T08:48:56.321Z</time></trkpt><trkpt lat="45.7074106" lon="11.6805982"><ele>77.0</ele><time>2026-04-04T08:48:58.317Z</time></trkpt><trkpt lat="45.7072855" lon="11.6805869"><ele>77.0</ele><time>2026-04-04T08:49:00.319Z</time></trkpt><trkpt lat="45.7071645" lon="11.6805853"><ele>77.0</ele><time>2026-04-04T08:49:02.32Z</time></trkpt><trkpt lat="45.7070692" lon="11.6806395"><ele>77.0</ele><time>2026-04-04T08:49:04.323Z</time></trkpt><trkpt lat="45.7069913" lon="11.6807875"><ele>77.0</ele><time>2026-04-04T08:49:06.328Z</time></trkpt><trkpt lat="45.7069676" lon="11.6808778"><ele>77.0</ele><time>2026-04-04T08:49:07.32Z</time></trkpt><trkpt lat="45.706947" lon="11.6809783"><ele>77.0</ele><time>2026-04-04T08:49:08.322Z</time></trkpt><trkpt lat="45.7069316" lon="11.6810825"><ele>77.0</ele><time>2026-04-04T08:49:09.319Z</time></trkpt><trkpt lat="45.7069259" lon="11.6811956"><ele>77.0</ele><time>2026-04-04T08:49:10.313Z</time></trkpt><trkpt lat="45.7069874" lon="11.6813387"><ele>77.0</ele><time>2026-04-04T08:49:12.307Z</time></trkpt><trkpt lat="45.7070421" lon="11.6814066"><ele>77.0</ele><time>2026-04-04T08:49:13.321Z</time></trkpt><trkpt lat="45.7070979" lon="11.68148"><ele>77.0</ele><time>2026-04-04T08:49:14.317Z</time></trkpt><trkpt lat="45.7071362" lon="11.6815565"><ele>76.5</ele><time>2026-04-04T08:49:15.311Z</time></trkpt><trkpt lat="45.7071603" lon="11.6816488"><ele>76.0</ele><time>2026-04-04T08:49:16.315Z</time></trkpt><trkpt lat="45.7071704" lon="11.6817477"><ele>75.5</ele><time>2026-04-04T08:49:17.322Z</time></trkpt><trkpt lat="45.707141" lon="11.6818623"><ele>75.0</ele><time>2026-04-04T08:49:18.319Z</time></trkpt><trkpt lat="45.7071042" lon="11.6819792"><ele>74.5</ele><time>2026-04-04T08:49:19.316Z</time></trkpt><trkpt lat="45.7070735" lon="11.6820935"><ele>74.0</ele><time>2026-04-04T08:49:20.318Z</time></trkpt><trkpt lat="45.7070389" lon="11.6821891"><ele>73.33333333333334</ele><time>2026-04-04T08:49:21.325Z</time></trkpt><trkpt lat="45.7069908" lon="11.6822812"><ele>72.66666666666667</ele><time>2026-04-04T08:49:22.325Z</time></trkpt><trkpt lat="45.7069097" lon="11.6823587"><ele>72.0</ele><time>2026-04-04T08:49:23.327Z</time></trkpt><trkpt lat="45.7068213" lon="11.6824175"><ele>71.33333333333333</ele><time>2026-04-04T08:49:24.324Z</time></trkpt><trkpt lat="45.7067348" lon="11.6824536"><ele>70.66666666666666</ele><time>2026-04-04T08:49:25.317Z</time></trkpt><trkpt lat="45.7066619" lon="11.6824946"><ele>70.0</ele><time>2026-04-04T08:49:26.316Z</time></trkpt><trkpt lat="45.706596" lon="11.6825373"><ele>69.83333333333333</ele><time>2026-04-04T08:49:27.311Z</time></trkpt><trkpt lat="45.7065343" lon="11.6825885"><ele>69.66666666666666</ele><time>2026-04-04T08:49:28.319Z</time></trkpt><trkpt lat="45.7064758" lon="11.6826332"><ele>69.5</ele><time>2026-04-04T08:49:29.32Z</time></trkpt><trkpt lat="45.706415" lon="11.6826695"><ele>69.33333333333333</ele><time>2026-04-04T08:49:30.319Z</time></trkpt><trkpt lat="45.7063522" lon="11.6826927"><ele>69.16666666666667</ele><time>2026-04-04T08:49:31.325Z</time></trkpt><trkpt lat="45.7062283" lon="11.6827097"><ele>69.0</ele><time>2026-04-04T08:49:33.326Z</time></trkpt><trkpt lat="45.7061226" lon="11.6827103"><ele>69.2</ele><time>2026-04-04T08:49:35.328Z</time></trkpt><trkpt lat="45.7060211" lon="11.6827163"><ele>69.4</ele><time>2026-04-04T08:49:37.32Z</time></trkpt><trkpt lat="45.7058952" lon="11.6827242"><ele>69.6</ele><time>2026-04-04T08:49:39.335Z</time></trkpt><trkpt lat="45.7058312" lon="11.6827444"><ele>69.8</ele><time>2026-04-04T08:49:40.328Z</time></trkpt><trkpt lat="45.7057238" lon="11.6827607"><ele>70.0</ele><time>2026-04-04T08:49:42.324Z</time></trkpt><trkpt lat="45.7056357" lon="11.6827"><ele>70.0</ele><time>2026-04-04T08:49:44.329Z</time></trkpt><trkpt lat="45.7055515" lon="11.6825938"><ele>70.0</ele><time>2026-04-04T08:49:46.329Z</time></trkpt><trkpt lat="45.7054866" lon="11.6825202"><ele>70.0</ele><time>2026-04-04T08:49:48.322Z</time></trkpt><trkpt lat="45.7053929" lon="11.6824259"><ele>70.0</ele><time>2026-04-04T08:49:50.326Z</time></trkpt><trkpt lat="45.7053227" lon="11.6823502"><ele>70.0</ele><time>2026-04-04T08:49:51.319Z</time></trkpt><trkpt lat="45.7052486" lon="11.68228"><ele>70.0</ele><time>2026-04-04T08:49:52.327Z</time></trkpt><trkpt lat="45.7051692" lon="11.6822322"><ele>70.0</ele><time>2026-04-04T08:49:53.327Z</time></trkpt><trkpt lat="45.7050964" lon="11.6821815"><ele>70.0</ele><time>2026-04-04T08:49:54.319Z</time></trkpt><trkpt lat="45.7050419" lon="11.682117"><ele>70.0</ele><time>2026-04-04T08:49:55.318Z</time></trkpt><trkpt lat="45.7049575" lon="11.6820076"><ele>70.0</ele><time>2026-04-04T08:49:57.318Z</time></trkpt><trkpt lat="45.7049033" lon="11.6819284"><ele>70.0</ele><time>2026-04-04T08:49:59.321Z</time></trkpt><trkpt lat="45.704904" lon="11.681808"><ele>70.2</ele><time>2026-04-04T08:50:01.333Z</time></trkpt><trkpt lat="45.7049401" lon="11.6817238"><ele>70.4</ele><time>2026-04-04T08:50:02.324Z</time></trkpt><trkpt lat="45.7049935" lon="11.6815958"><ele>70.6</ele><time>2026-04-04T08:50:04.318Z</time></trkpt><trkpt lat="45.7049414" lon="11.681508"><ele>70.8</ele><time>2026-04-04T08:50:06.322Z</time></trkpt><trkpt lat="45.7048474" lon="11.6814205"><ele>71.0</ele><time>2026-04-04T08:50:08.321Z</time></trkpt><trkpt lat="45.7047235" lon="11.6814482"><ele>71.0</ele><time>2026-04-04T08:50:10.328Z</time></trkpt><trkpt lat="45.7046543" lon="11.6814649"><ele>71.0</ele><time>2026-04-04T08:50:11.318Z</time></trkpt><trkpt lat="45.7045904" lon="11.6814636"><ele>71.0</ele><time>2026-04-04T08:50:12.33Z</time></trkpt><trkpt lat="45.7044692" lon="11.6813659"><ele>71.0</ele><time>2026-04-04T08:50:14.321Z</time></trkpt><trkpt lat="45.7044041" lon="11.681302"><ele>71.0</ele><time>2026-04-04T08:50:15.321Z</time></trkpt><trkpt lat="45.7043364" lon="11.6812406"><ele>71.0</ele><time>2026-04-04T08:50:16.328Z</time></trkpt><trkpt lat="45.7042763" lon="11.6811736"><ele>70.71428571428571</ele><time>2026-04-04T08:50:17.323Z</time></trkpt><trkpt lat="45.7042218" lon="11.6810956"><ele>70.42857142857142</ele><time>2026-04-04T08:50:18.33Z</time></trkpt><trkpt lat="45.7041702" lon="11.6810087"><ele>70.14285714285714</ele><time>2026-04-04T08:50:19.326Z</time></trkpt><trkpt lat="45.7041185" lon="11.6809243"><ele>69.85714285714286</ele><time>2026-04-04T08:50:20.336Z</time></trkpt><trkpt lat="45.704064" lon="11.6808479"><ele>69.57142857142858</ele><time>2026-04-04T08:50:21.331Z</time></trkpt><trkpt lat="45.7040149" lon="11.6807757"><ele>69.28571428571429</ele><time>2026-04-04T08:50:22.334Z</time></trkpt><trkpt lat="45.7039676" lon="11.6807092"><ele>69.0</ele><time>2026-04-04T08:50:23.331Z</time></trkpt><trkpt lat="45.7038836" lon="11.6805865"><ele>69.0</ele><time>2026-04-04T08:50:25.335Z</time></trkpt><trkpt lat="45.7038183" lon="11.680461"><ele>69.0</ele><time>2026-04-04T08:50:27.328Z</time></trkpt><trkpt lat="45.7037762" lon="11.6803265"><ele>69.0</ele><time>2026-04-04T08:50:29.329Z</time></trkpt><trkpt lat="45.7037359" lon="11.6801962"><ele>69.0</ele><time>2026-04-04T08:50:31.333Z</time></trkpt><trkpt lat="45.7036918" lon="11.6800781"><ele>69.0</ele><time>2026-04-04T08:50:33.326Z</time></trkpt><trkpt lat="45.7036084" lon="11.6799658"><ele>69.2</ele><time>2026-04-04T08:50:35.326Z</time></trkpt><trkpt lat="45.7035235" lon="11.6799017"><ele>69.4</ele><time>2026-04-04T08:50:37.322Z</time></trkpt><trkpt lat="45.7034115" lon="11.6799198"><ele>69.6</ele><time>2026-04-04T08:50:39.329Z</time></trkpt><trkpt lat="45.7033319" lon="11.6799835"><ele>69.8</ele><time>2026-04-04T08:50:40.331Z</time></trkpt><trkpt lat="45.7032311" lon="11.6800848"><ele>70.0</ele><time>2026-04-04T08:50:41.34Z</time></trkpt><trkpt lat="45.7031272" lon="11.6801878"><ele>69.83333333333333</ele><time>2026-04-04T08:50:42.33Z</time></trkpt><trkpt lat="45.7030328" lon="11.6802737"><ele>69.66666666666666</ele><time>2026-04-04T08:50:43.343Z</time></trkpt><trkpt lat="45.7029589" lon="11.680317"><ele>69.5</ele><time>2026-04-04T08:50:44.329Z</time></trkpt><trkpt lat="45.7028696" lon="11.6803445"><ele>69.33333333333333</ele><time>2026-04-04T08:50:46.328Z</time></trkpt><trkpt lat="45.7028025" lon="11.6803507"><ele>69.16666666666667</ele><time>2026-04-04T08:50:48.329Z</time></trkpt><trkpt lat="45.7027391" lon="11.6803493"><ele>69.0</ele><time>2026-04-04T08:50:50.321Z</time></trkpt><trkpt lat="45.702641" lon="11.6803567"><ele>69.0</ele><time>2026-04-04T08:50:53.334Z</time></trkpt><trkpt lat="45.7025568" lon="11.6803606"><ele>69.0</ele><time>2026-04-04T08:50:55.327Z</time></trkpt><trkpt lat="45.7024746" lon="11.6803821"><ele>69.0</ele><time>2026-04-04T08:50:57.33Z</time></trkpt><trkpt lat="45.7023956" lon="11.6804194"><ele>69.0</ele><time>2026-04-04T08:50:59.329Z</time></trkpt><trkpt lat="45.7023143" lon="11.6804579"><ele>69.0</ele><time>2026-04-04T08:51:01.331Z</time></trkpt><trkpt lat="45.7022241" lon="11.6804951"><ele>69.0</ele><time>2026-04-04T08:51:03.334Z</time></trkpt><trkpt lat="45.7021265" lon="11.6805322"><ele>69.0</ele><time>2026-04-04T08:51:05.319Z</time></trkpt><trkpt lat="45.7020173" lon="11.6805699"><ele>69.0</ele><time>2026-04-04T08:51:07.325Z</time></trkpt><trkpt lat="45.7018794" lon="11.6805974"><ele>69.0</ele><time>2026-04-04T08:51:09.32Z</time></trkpt><trkpt lat="45.7017963" lon="11.6806209"><ele>69.0</ele><time>2026-04-04T08:51:10.319Z</time></trkpt><trkpt lat="45.7017019" lon="11.6806376"><ele>69.0</ele><time>2026-04-04T08:51:11.324Z</time></trkpt><trkpt lat="45.7016089" lon="11.680646"><ele>69.0</ele><time>2026-04-04T08:51:12.321Z</time></trkpt><trkpt lat="45.7015312" lon="11.6806579"><ele>69.0</ele><time>2026-04-04T08:51:13.326Z</time></trkpt><trkpt lat="45.7014487" lon="11.68066"><ele>69.0</ele><time>2026-04-04T08:51:14.342Z</time></trkpt><trkpt lat="45.7013578" lon="11.6806485"><ele>69.0</ele><time>2026-04-04T08:51:15.328Z</time></trkpt><trkpt lat="45.7012538" lon="11.6806222"><ele>69.0</ele><time>2026-04-04T08:51:16.334Z</time></trkpt><trkpt lat="45.7011526" lon="11.6806142"><ele>69.16666666666667</ele><time>2026-04-04T08:51:17.317Z</time></trkpt><trkpt lat="45.7010545" lon="11.6806123"><ele>69.33333333333333</ele><time>2026-04-04T08:51:18.33Z</time></trkpt><trkpt lat="45.7009669" lon="11.6806252"><ele>69.5</ele><time>2026-04-04T08:51:19.32Z</time></trkpt><trkpt lat="45.7008856" lon="11.6806471"><ele>69.66666666666666</ele><time>2026-04-04T08:51:20.321Z</time></trkpt><trkpt lat="45.7008107" lon="11.6806829"><ele>69.83333333333333</ele><time>2026-04-04T08:51:21.319Z</time></trkpt><trkpt lat="45.7007454" lon="11.6807257"><ele>70.0</ele><time>2026-04-04T08:51:22.323Z</time></trkpt><trkpt lat="45.7006897" lon="11.6807843"><ele>70.0</ele><time>2026-04-04T08:51:23.323Z</time></trkpt><trkpt lat="45.700627" lon="11.6808316"><ele>70.0</ele><time>2026-04-04T08:51:24.323Z</time></trkpt><trkpt lat="45.7005638" lon="11.6808481"><ele>70.0</ele><time>2026-04-04T08:51:25.325Z</time></trkpt><trkpt lat="45.7004809" lon="11.6808506"><ele>70.0</ele><time>2026-04-04T08:51:26.32Z</time></trkpt><trkpt lat="45.7003939" lon="11.6808491"><ele>70.0</ele><time>2026-04-04T08:51:27.33Z</time></trkpt><trkpt lat="45.7003072" lon="11.6808438"><ele>70.0</ele><time>2026-04-04T08:51:28.323Z</time></trkpt><trkpt lat="45.7002169" lon="11.680844"><ele>69.6</ele><time>2026-04-04T08:51:29.327Z</time></trkpt><trkpt lat="45.7001286" lon="11.6808483"><ele>69.2</ele><time>2026-04-04T08:51:30.325Z</time></trkpt><trkpt lat="45.7000392" lon="11.680863"><ele>68.8</ele><time>2026-04-04T08:51:31.332Z</time></trkpt><trkpt lat="45.6999453" lon="11.6809014"><ele>68.4</ele><time>2026-04-04T08:51:32.324Z</time></trkpt><trkpt lat="45.6998319" lon="11.6809791"><ele>68.0</ele><time>2026-04-04T08:51:33.327Z</time></trkpt><trkpt lat="45.699698" lon="11.6810574"><ele>68.0</ele><time>2026-04-04T08:51:34.322Z</time></trkpt><trkpt lat="45.699555" lon="11.6811141"><ele>68.0</ele><time>2026-04-04T08:51:35.324Z</time></trkpt><trkpt lat="45.699389" lon="11.6811375"><ele>68.0</ele><time>2026-04-04T08:51:36.327Z</time></trkpt><trkpt lat="45.6992566" lon="11.6811639"><ele>68.0</ele><time>2026-04-04T08:51:37.322Z</time></trkpt><trkpt lat="45.6991421" lon="11.6812008"><ele>67.66666666666667</ele><time>2026-04-04T08:51:38.329Z</time></trkpt><trkpt lat="45.6990431" lon="11.6812347"><ele>67.33333333333334</ele><time>2026-04-04T08:51:39.323Z</time></trkpt><trkpt lat="45.6989553" lon="11.6812598"><ele>67.0</ele><time>2026-04-04T08:51:40.323Z</time></trkpt><trkpt lat="45.6988814" lon="11.681257"><ele>66.66666666666667</ele><time>2026-04-04T08:51:41.316Z</time></trkpt><trkpt lat="45.6988047" lon="11.6812297"><ele>66.33333333333333</ele><time>2026-04-04T08:51:42.337Z</time></trkpt><trkpt lat="45.6987445" lon="11.6811757"><ele>66.0</ele><time>2026-04-04T08:51:43.328Z</time></trkpt><trkpt lat="45.6986819" lon="11.6811415"><ele>66.0</ele><time>2026-04-04T08:51:44.334Z</time></trkpt><trkpt lat="45.6985918" lon="11.6811437"><ele>66.0</ele><time>2026-04-04T08:51:46.323Z</time></trkpt><trkpt lat="45.6985042" lon="11.6812061"><ele>66.0</ele><time>2026-04-04T08:51:48.312Z</time></trkpt><trkpt lat="45.6984504" lon="11.6812604"><ele>66.0</ele><time>2026-04-04T08:51:49.322Z</time></trkpt><trkpt lat="45.6983531" lon="11.6813239"><ele>66.0</ele><time>2026-04-04T08:51:51.323Z</time></trkpt><trkpt lat="45.6982784" lon="11.6813411"><ele>66.0</ele><time>2026-04-04T08:51:53.323Z</time></trkpt><trkpt lat="45.6982205" lon="11.6813856"><ele>65.83333333333333</ele><time>2026-04-04T08:51:55.319Z</time></trkpt><trkpt lat="45.6981604" lon="11.6814392"><ele>65.66666666666667</ele><time>2026-04-04T08:51:57.322Z</time></trkpt><trkpt lat="45.6980769" lon="11.6814247"><ele>65.5</ele><time>2026-04-04T08:52:00.323Z</time></trkpt><trkpt lat="45.6980016" lon="11.6813933"><ele>65.33333333333334</ele><time>2026-04-04T08:52:10.31Z</time></trkpt><trkpt lat="45.6979065" lon="11.6813597"><ele>65.16666666666667</ele><time>2026-04-04T08:52:12.316Z</time></trkpt><trkpt lat="45.6978601" lon="11.6812945"><ele>65.0</ele><time>2026-04-04T09:13:47.309Z</time></trkpt><trkpt lat="45.6978657" lon="11.6811841"><ele>65.4</ele><time>2026-04-04T09:13:49.32Z</time></trkpt><trkpt lat="45.6978712" lon="11.681058"><ele>65.8</ele><time>2026-04-04T09:13:51.325Z</time></trkpt><trkpt lat="45.6978661" lon="11.6809252"><ele>66.2</ele><time>2026-04-04T09:13:53.315Z</time></trkpt><trkpt lat="45.6978512" lon="11.6807928"><ele>66.6</ele><time>2026-04-04T09:13:55.314Z</time></trkpt><trkpt lat="45.697826" lon="11.6806567"><ele>67.0</ele><time>2026-04-04T09:13:57.318Z</time></trkpt><trkpt lat="45.6977916" lon="11.6805273"><ele>67.0</ele><time>2026-04-04T09:13:59.324Z</time></trkpt><trkpt lat="45.6977487" lon="11.6803951"><ele>67.0</ele><time>2026-04-04T09:14:01.322Z</time></trkpt><trkpt lat="45.6976989" lon="11.6803006"><ele>67.0</ele><time>2026-04-04T09:14:03.319Z</time></trkpt><trkpt lat="45.6976373" lon="11.6802349"><ele>67.0</ele><time>2026-04-04T09:14:06.327Z</time></trkpt><trkpt lat="45.6975741" lon="11.6802722"><ele>67.0</ele><time>2026-04-04T09:14:11.32Z</time></trkpt><trkpt lat="45.6975638" lon="11.6803951"><ele>67.0</ele><time>2026-04-04T09:14:14.319Z</time></trkpt><trkpt lat="45.6975209" lon="11.6804794"><ele>67.0</ele><time>2026-04-04T09:14:16.319Z</time></trkpt><trkpt lat="45.6974445" lon="11.6805266"><ele>67.0</ele><time>2026-04-04T09:14:18.32Z</time></trkpt><trkpt lat="45.6973555" lon="11.68056"><ele>67.0</ele><time>2026-04-04T09:14:20.322Z</time></trkpt><trkpt lat="45.6972681" lon="11.6805993"><ele>67.0</ele><time>2026-04-04T09:14:22.322Z</time></trkpt><trkpt lat="45.6972155" lon="11.6806494"><ele>67.0</ele><time>2026-04-04T09:14:24.32Z</time></trkpt><trkpt lat="45.6971589" lon="11.6807128"><ele>67.0</ele><time>2026-04-04T09:14:27.327Z</time></trkpt><trkpt lat="45.6970861" lon="11.6806167"><ele>67.0</ele><time>2026-04-04T09:14:30.318Z</time></trkpt><trkpt lat="45.6970339" lon="11.6804935"><ele>67.0</ele><time>2026-04-04T09:14:32.318Z</time></trkpt><trkpt lat="45.6969755" lon="11.6804269"><ele>67.0</ele><time>2026-04-04T09:14:34.32Z</time></trkpt><trkpt lat="45.6969112" lon="11.6803926"><ele>67.0</ele><time>2026-04-04T09:14:36.313Z</time></trkpt><trkpt lat="45.6968444" lon="11.6804307"><ele>67.0</ele><time>2026-04-04T09:14:38.32Z</time></trkpt><trkpt lat="45.6967571" lon="11.6805104"><ele>67.0</ele><time>2026-04-04T09:14:40.31Z</time></trkpt><trkpt lat="45.6966768" lon="11.680591"><ele>67.0</ele><time>2026-04-04T09:14:42.315Z</time></trkpt><trkpt lat="45.6965648" lon="11.6806454"><ele>67.0</ele><time>2026-04-04T09:14:44.313Z</time></trkpt><trkpt lat="45.6964671" lon="11.6806297"><ele>67.0</ele><time>2026-04-04T09:14:46.314Z</time></trkpt><trkpt lat="45.6963593" lon="11.6806001"><ele>67.0</ele><time>2026-04-04T09:14:48.319Z</time></trkpt><trkpt lat="45.6962936" lon="11.6806072"><ele>67.0</ele><time>2026-04-04T09:14:50.323Z</time></trkpt><trkpt lat="45.6962322" lon="11.6805517"><ele>67.0</ele><time>2026-04-04T09:17:07.317Z</time></trkpt><trkpt lat="45.6963045" lon="11.6806063"><ele>67.0</ele><time>2026-04-04T09:17:14.332Z</time></trkpt><trkpt lat="45.696388" lon="11.6805845"><ele>67.0</ele><time>2026-04-04T09:17:16.327Z</time></trkpt><trkpt lat="45.6964611" lon="11.6805819"><ele>67.0</ele><time>2026-04-04T09:17:18.331Z</time></trkpt><trkpt lat="45.6965595" lon="11.6806317"><ele>67.0</ele><time>2026-04-04T09:17:20.331Z</time></trkpt><trkpt lat="45.6966586" lon="11.6806304"><ele>67.0</ele><time>2026-04-04T09:17:22.327Z</time></trkpt><trkpt lat="45.69676" lon="11.6805506"><ele>67.0</ele><time>2026-04-04T09:17:24.327Z</time></trkpt><trkpt lat="45.6968133" lon="11.6804813"><ele>67.0</ele><time>2026-04-04T09:17:25.325Z</time></trkpt><trkpt lat="45.696907" lon="11.6803961"><ele>67.0</ele><time>2026-04-04T09:17:27.322Z</time></trkpt><trkpt lat="45.6970012" lon="11.6803859"><ele>67.0</ele><time>2026-04-04T09:17:29.328Z</time></trkpt><trkpt lat="45.6970821" lon="11.6804541"><ele>67.0</ele><time>2026-04-04T09:17:31.336Z</time></trkpt><trkpt lat="45.6971973" lon="11.6805428"><ele>67.0</ele><time>2026-04-04T09:17:33.331Z</time></trkpt><trkpt lat="45.697264" lon="11.6805786"><ele>67.0</ele><time>2026-04-04T09:17:34.325Z</time></trkpt><trkpt lat="45.6973259" lon="11.6806169"><ele>67.0</ele><time>2026-04-04T09:17:35.33Z</time></trkpt><trkpt lat="45.6974225" lon="11.6806747"><ele>67.0</ele><time>2026-04-04T09:17:37.323Z</time></trkpt><trkpt lat="45.6975181" lon="11.6806408"><ele>67.0</ele><time>2026-04-04T09:17:39.331Z</time></trkpt><trkpt lat="45.6976146" lon="11.6805591"><ele>67.0</ele><time>2026-04-04T09:17:41.331Z</time></trkpt><trkpt lat="45.6976957" lon="11.6804588"><ele>67.0</ele><time>2026-04-04T09:17:43.324Z</time></trkpt><trkpt lat="45.6977243" lon="11.6802939"><ele>67.0</ele><time>2026-04-04T09:17:45.332Z</time></trkpt><trkpt lat="45.6977068" lon="11.6801735"><ele>67.0</ele><time>2026-04-04T09:17:46.331Z</time></trkpt><trkpt lat="45.6976952" lon="11.6800661"><ele>67.0</ele><time>2026-04-04T09:17:47.326Z</time></trkpt><trkpt lat="45.6977054" lon="11.6799733"><ele>67.8</ele><time>2026-04-04T09:17:48.318Z</time></trkpt><trkpt lat="45.6977371" lon="11.6798572"><ele>68.6</ele><time>2026-04-04T09:17:50.32Z</time></trkpt><trkpt lat="45.6976418" lon="11.6798671"><ele>69.39999999999999</ele><time>2026-04-04T09:17:53.311Z</time></trkpt><trkpt lat="45.697553" lon="11.6799301"><ele>70.2</ele><time>2026-04-04T09:17:55.322Z</time></trkpt><trkpt lat="45.6974695" lon="11.6799917"><ele>71.0</ele><time>2026-04-04T09:17:57.331Z</time></trkpt><trkpt lat="45.6973989" lon="11.6800601"><ele>71.0</ele><time>2026-04-04T09:17:59.331Z</time></trkpt><trkpt lat="45.6973853" lon="11.6801532"><ele>71.0</ele><time>2026-04-04T09:18:01.335Z</time></trkpt><trkpt lat="45.6974563" lon="11.680227"><ele>71.0</ele><time>2026-04-04T09:18:03.328Z</time></trkpt><trkpt lat="45.6975619" lon="11.6802853"><ele>71.0</ele><time>2026-04-04T09:18:05.324Z</time></trkpt><trkpt lat="45.6976091" lon="11.6803895"><ele>71.0</ele><time>2026-04-04T09:18:07.322Z</time></trkpt><trkpt lat="45.6975626" lon="11.6804723"><ele>71.0</ele><time>2026-04-04T09:18:09.32Z</time></trkpt><trkpt lat="45.6974587" lon="11.6804487"><ele>71.0</ele><time>2026-04-04T09:18:11.325Z</time></trkpt><trkpt lat="45.6974075" lon="11.6803959"><ele>71.0</ele><time>2026-04-04T09:18:12.321Z</time></trkpt><trkpt lat="45.697351" lon="11.6803387"><ele>71.0</ele><time>2026-04-04T09:18:13.324Z</time></trkpt><trkpt lat="45.6972481" lon="11.6802572"><ele>71.0</ele><time>2026-04-04T09:18:15.322Z</time></trkpt><trkpt lat="45.6971473" lon="11.6801861"><ele>71.0</ele><time>2026-04-04T09:18:17.317Z</time></trkpt><trkpt lat="45.697077" lon="11.6801107"><ele>71.0</ele><time>2026-04-04T09:18:19.325Z</time></trkpt><trkpt lat="45.6970878" lon="11.6799962"><ele>71.0</ele><time>2026-04-04T09:18:21.321Z</time></trkpt><trkpt lat="45.6971815" lon="11.6798972"><ele>71.0</ele><time>2026-04-04T09:18:23.312Z</time></trkpt><trkpt lat="45.697282" lon="11.6798269"><ele>71.0</ele><time>2026-04-04T09:18:25.318Z</time></trkpt><trkpt lat="45.6973687" lon="11.6797691"><ele>71.0</ele><time>2026-04-04T09:18:27.321Z</time></trkpt><trkpt lat="45.6974506" lon="11.6797174"><ele>71.0</ele><time>2026-04-04T09:18:29.322Z</time></trkpt><trkpt lat="45.6975373" lon="11.6796905"><ele>71.0</ele><time>2026-04-04T09:18:31.322Z</time></trkpt><trkpt lat="45.6976306" lon="11.6796957"><ele>71.0</ele><time>2026-04-04T09:18:33.329Z</time></trkpt><trkpt lat="45.6977069" lon="11.6797405"><ele>71.0</ele><time>2026-04-04T09:18:35.318Z</time></trkpt><trkpt lat="45.6977846" lon="11.6797619"><ele>71.0</ele><time>2026-04-04T09:18:37.323Z</time></trkpt><trkpt lat="45.6978349" lon="11.6796681"><ele>71.0</ele><time>2026-04-04T09:18:39.325Z</time></trkpt><trkpt lat="45.6978437" lon="11.6795523"><ele>71.0</ele><time>2026-04-04T09:18:41.323Z</time></trkpt><trkpt lat="45.6977482" lon="11.6794987"><ele>71.0</ele><time>2026-04-04T09:18:44.322Z</time></trkpt><trkpt lat="45.6976829" lon="11.6795219"><ele>71.0</ele><time>2026-04-04T09:18:45.316Z</time></trkpt><trkpt lat="45.6975698" lon="11.6795684"><ele>71.0</ele><time>2026-04-04T09:18:47.31Z</time></trkpt><trkpt lat="45.6975171" lon="11.6796278"><ele>71.0</ele><time>2026-04-04T09:18:48.318Z</time></trkpt><trkpt lat="45.6974273" lon="11.6797103"><ele>71.0</ele><time>2026-04-04T09:18:50.318Z</time></trkpt><trkpt lat="45.6973328" lon="11.6797187"><ele>71.0</ele><time>2026-04-04T09:18:52.321Z</time></trkpt><trkpt lat="45.6972311" lon="11.6797648"><ele>71.0</ele><time>2026-04-04T09:18:54.322Z</time></trkpt><trkpt lat="45.6971362" lon="11.6798446"><ele>71.0</ele><time>2026-04-04T09:18:56.323Z</time></trkpt><trkpt lat="45.6970778" lon="11.6799304"><ele>71.0</ele><time>2026-04-04T09:18:58.314Z</time></trkpt><trkpt lat="45.6970085" lon="11.6799947"><ele>71.0</ele><time>2026-04-04T09:19:00.318Z</time></trkpt><trkpt lat="45.6969255" lon="11.6800919"><ele>71.0</ele><time>2026-04-04T09:19:02.306Z</time></trkpt><trkpt lat="45.6968463" lon="11.6801837"><ele>71.0</ele><time>2026-04-04T09:19:04.313Z</time></trkpt><trkpt lat="45.6968015" lon="11.6802793"><ele>71.0</ele><time>2026-04-04T09:19:06.317Z</time></trkpt><trkpt lat="45.6967017" lon="11.6802848"><ele>71.0</ele><time>2026-04-04T09:19:08.311Z</time></trkpt><trkpt lat="45.696592" lon="11.6802407"><ele>70.66666666666667</ele><time>2026-04-04T09:19:10.312Z</time></trkpt><trkpt lat="45.696474" lon="11.680266"><ele>70.33333333333334</ele><time>2026-04-04T09:19:12.315Z</time></trkpt><trkpt lat="45.6963968" lon="11.6803079"><ele>70.0</ele><time>2026-04-04T09:19:13.315Z</time></trkpt><trkpt lat="45.6963195" lon="11.6803605"><ele>69.66666666666667</ele><time>2026-04-04T09:19:14.323Z</time></trkpt><trkpt lat="45.6962495" lon="11.6804093"><ele>69.33333333333333</ele><time>2026-04-04T09:19:15.32Z</time></trkpt><trkpt lat="45.6961787" lon="11.6804542"><ele>69.0</ele><time>2026-04-04T09:19:16.319Z</time></trkpt><trkpt lat="45.6961149" lon="11.6805003"><ele>68.8</ele><time>2026-04-04T09:19:17.321Z</time></trkpt><trkpt lat="45.6960545" lon="11.6805405"><ele>68.60000000000001</ele><time>2026-04-04T09:19:18.316Z</time></trkpt><trkpt lat="45.6959407" lon="11.6806281"><ele>68.4</ele><time>2026-04-04T09:19:20.32Z</time></trkpt><trkpt lat="45.6958321" lon="11.680709"><ele>68.2</ele><time>2026-04-04T09:19:22.319Z</time></trkpt><trkpt lat="45.6957631" lon="11.6807483"><ele>68.0</ele><time>2026-04-04T09:19:24.32Z</time></trkpt><trkpt lat="45.6957348" lon="11.6806533"><ele>68.0</ele><time>2026-04-04T09:19:26.317Z</time></trkpt><trkpt lat="45.695687" lon="11.6805384"><ele>68.0</ele><time>2026-04-04T09:19:28.32Z</time></trkpt><trkpt lat="45.6956273" lon="11.6805002"><ele>68.0</ele><time>2026-04-04T09:19:30.313Z</time></trkpt><trkpt lat="45.6955442" lon="11.6804961"><ele>68.0</ele><time>2026-04-04T09:19:33.325Z</time></trkpt><trkpt lat="45.695479" lon="11.6805247"><ele>68.0</ele><time>2026-04-04T09:19:45.317Z</time></trkpt><trkpt lat="45.6954114" lon="11.6805907"><ele>68.0</ele><time>2026-04-04T09:19:49.32Z</time></trkpt><trkpt lat="45.6953963" lon="11.6806977"><ele>68.0</ele><time>2026-04-04T09:19:52.318Z</time></trkpt><trkpt lat="45.6953307" lon="11.6807811"><ele>68.0</ele><time>2026-04-04T09:19:55.316Z</time></trkpt><trkpt lat="45.6952779" lon="11.6808573"><ele>68.0</ele><time>2026-04-04T09:19:57.315Z</time></trkpt><trkpt lat="45.6952249" lon="11.6809475"><ele>68.0</ele><time>2026-04-04T09:19:59.312Z</time></trkpt><trkpt lat="45.6951513" lon="11.6810082"><ele>68.0</ele><time>2026-04-04T09:20:01.317Z</time></trkpt><trkpt lat="45.695086" lon="11.6810411"><ele>68.0</ele><time>2026-04-04T09:20:03.31Z</time></trkpt><trkpt lat="45.6950704" lon="11.6811321"><ele>68.0</ele><time>2026-04-04T09:20:06.329Z</time></trkpt><trkpt lat="45.6951554" lon="11.6811497"><ele>68.0</ele><time>2026-04-04T09:20:08.318Z</time></trkpt><trkpt lat="45.6952498" lon="11.681126"><ele>68.0</ele><time>2026-04-04T09:20:10.318Z</time></trkpt><trkpt lat="45.6953268" lon="11.6810937"><ele>68.0</ele><time>2026-04-04T09:20:12.32Z</time></trkpt><trkpt lat="45.6954091" lon="11.6810249"><ele>68.0</ele><time>2026-04-04T09:20:14.323Z</time></trkpt><trkpt lat="45.6954947" lon="11.6809496"><ele>67.99999999999999</ele><time>2026-04-04T09:20:16.319Z</time></trkpt><trkpt lat="45.6955578" lon="11.6809296"><ele>68.0</ele><time>2026-04-04T09:20:18.322Z</time></trkpt><trkpt lat="45.6956209" lon="11.6809547"><ele>68.0</ele><time>2026-04-04T09:20:23.318Z</time></trkpt><trkpt lat="45.6955511" lon="11.680921"><ele>68.0</ele><time>2026-04-04T09:21:05.319Z</time></trkpt><trkpt lat="45.6956256" lon="11.6809746"><ele>68.0</ele><time>2026-04-04T09:21:27.319Z</time></trkpt><trkpt lat="45.6956319" lon="11.6810905"><ele>67.99999999999999</ele><time>2026-04-04T09:21:30.32Z</time></trkpt><trkpt lat="45.6956754" lon="11.6811685"><ele>68.0</ele><time>2026-04-04T09:21:33.326Z</time></trkpt><trkpt lat="45.695764" lon="11.6811646"><ele>68.0</ele><time>2026-04-04T09:21:36.321Z</time></trkpt><trkpt lat="45.6958107" lon="11.6810796"><ele>68.0</ele><time>2026-04-04T09:21:38.327Z</time></trkpt><trkpt lat="45.6958278" lon="11.6809906"><ele>68.0</ele><time>2026-04-04T09:21:39.317Z</time></trkpt><trkpt lat="45.6958814" lon="11.6808648"><ele>68.0</ele><time>2026-04-04T09:21:41.322Z</time></trkpt><trkpt lat="45.6959773" lon="11.6808443"><ele>68.0</ele><time>2026-04-04T09:21:43.323Z</time></trkpt><trkpt lat="45.6960833" lon="11.6808001"><ele>67.8</ele><time>2026-04-04T09:21:45.318Z</time></trkpt><trkpt lat="45.6961714" lon="11.6807178"><ele>67.6</ele><time>2026-04-04T09:21:47.317Z</time></trkpt><trkpt lat="45.6962373" lon="11.6806449"><ele>67.4</ele><time>2026-04-04T09:21:49.319Z</time></trkpt><trkpt lat="45.6963486" lon="11.6805598"><ele>67.2</ele><time>2026-04-04T09:21:51.321Z</time></trkpt><trkpt lat="45.6964147" lon="11.6805311"><ele>67.0</ele><time>2026-04-04T09:21:52.313Z</time></trkpt><trkpt lat="45.6964838" lon="11.680535"><ele>67.0</ele><time>2026-04-04T09:21:53.321Z</time></trkpt><trkpt lat="45.6965568" lon="11.6805659"><ele>67.0</ele><time>2026-04-04T09:21:54.318Z</time></trkpt><trkpt lat="45.6966691" lon="11.6806049"><ele>67.0</ele><time>2026-04-04T09:21:56.322Z</time></trkpt><trkpt lat="45.6967796" lon="11.6805341"><ele>67.0</ele><time>2026-04-04T09:21:58.328Z</time></trkpt><trkpt lat="45.6968351" lon="11.6804601"><ele>67.0</ele><time>2026-04-04T09:21:59.318Z</time></trkpt><trkpt lat="45.6969392" lon="11.6803666"><ele>67.0</ele><time>2026-04-04T09:22:01.323Z</time></trkpt><trkpt lat="45.6970569" lon="11.6803693"><ele>67.0</ele><time>2026-04-04T09:22:03.324Z</time></trkpt><trkpt lat="45.6971172" lon="11.6804165"><ele>67.0</ele><time>2026-04-04T09:22:04.32Z</time></trkpt><trkpt lat="45.6971867" lon="11.6804785"><ele>67.0</ele><time>2026-04-04T09:22:05.32Z</time></trkpt><trkpt lat="45.6972675" lon="11.6805409"><ele>67.0</ele><time>2026-04-04T09:22:06.322Z</time></trkpt><trkpt lat="45.6973488" lon="11.6805974"><ele>67.0</ele><time>2026-04-04T09:22:07.324Z</time></trkpt><trkpt lat="45.6974143" lon="11.6806374"><ele>67.0</ele><time>2026-04-04T09:22:08.319Z</time></trkpt><trkpt lat="45.6974776" lon="11.6806453"><ele>67.0</ele><time>2026-04-04T09:22:09.328Z</time></trkpt><trkpt lat="45.6975368" lon="11.680604"><ele>67.0</ele><time>2026-04-04T09:22:10.322Z</time></trkpt><trkpt lat="45.6976" lon="11.6805598"><ele>67.0</ele><time>2026-04-04T09:22:11.321Z</time></trkpt><trkpt lat="45.6976525" lon="11.6805077"><ele>67.0</ele><time>2026-04-04T09:22:12.319Z</time></trkpt><trkpt lat="45.6976995" lon="11.6804465"><ele>67.0</ele><time>2026-04-04T09:22:13.323Z</time></trkpt><trkpt lat="45.6977343" lon="11.6803689"><ele>67.0</ele><time>2026-04-04T09:22:14.328Z</time></trkpt><trkpt lat="45.6977377" lon="11.6802495"><ele>67.0</ele><time>2026-04-04T09:22:15.318Z</time></trkpt><trkpt lat="45.6977315" lon="11.680116"><ele>67.0</ele><time>2026-04-04T09:22:16.325Z</time></trkpt><trkpt lat="45.6977441" lon="11.68001"><ele>67.0</ele><time>2026-04-04T09:22:17.312Z</time></trkpt><trkpt lat="45.697756" lon="11.6799207"><ele>67.0</ele><time>2026-04-04T09:22:18.316Z</time></trkpt><trkpt lat="45.6977591" lon="11.6798284"><ele>67.0</ele><time>2026-04-04T09:22:20.324Z</time></trkpt><trkpt lat="45.6976843" lon="11.6798431"><ele>67.66666666666666</ele><time>2026-04-04T09:22:22.314Z</time></trkpt><trkpt lat="45.6976236" lon="11.6798794"><ele>68.33333333333333</ele><time>2026-04-04T09:22:23.313Z</time></trkpt><trkpt lat="45.6975483" lon="11.6799362"><ele>69.0</ele><time>2026-04-04T09:22:24.314Z</time></trkpt><trkpt lat="45.6974773" lon="11.6799926"><ele>69.66666666666667</ele><time>2026-04-04T09:22:25.314Z</time></trkpt><trkpt lat="45.6974173" lon="11.6800489"><ele>70.33333333333334</ele><time>2026-04-04T09:22:26.319Z</time></trkpt><trkpt lat="45.6973662" lon="11.6801667"><ele>71.0</ele><time>2026-04-04T09:22:28.318Z</time></trkpt><trkpt lat="45.6974552" lon="11.6802561"><ele>71.0</ele><time>2026-04-04T09:22:30.317Z</time></trkpt><trkpt lat="45.6975386" lon="11.6802848"><ele>71.0</ele><time>2026-04-04T09:22:31.318Z</time></trkpt><trkpt lat="45.6976002" lon="11.6803818"><ele>71.0</ele><time>2026-04-04T09:22:33.316Z</time></trkpt><trkpt lat="45.6975413" lon="11.6804543"><ele>71.0</ele><time>2026-04-04T09:22:35.319Z</time></trkpt><trkpt lat="45.6974764" lon="11.680415"><ele>71.0</ele><time>2026-04-04T09:22:36.319Z</time></trkpt><trkpt lat="45.6973954" lon="11.6803331"><ele>71.0</ele><time>2026-04-04T09:22:37.317Z</time></trkpt><trkpt lat="45.6973126" lon="11.6802655"><ele>71.0</ele><time>2026-04-04T09:22:38.312Z</time></trkpt><trkpt lat="45.697235" lon="11.680216"><ele>71.0</ele><time>2026-04-04T09:22:39.318Z</time></trkpt><trkpt lat="45.6971753" lon="11.6801756"><ele>71.0</ele><time>2026-04-04T09:22:40.318Z</time></trkpt><trkpt lat="45.6970889" lon="11.6801015"><ele>71.0</ele><time>2026-04-04T09:22:42.327Z</time></trkpt><trkpt lat="45.6970793" lon="11.679994"><ele>71.0</ele><time>2026-04-04T09:22:44.32Z</time></trkpt><trkpt lat="45.6971386" lon="11.6799376"><ele>71.0</ele><time>2026-04-04T09:22:46.322Z</time></trkpt><trkpt lat="45.6972312" lon="11.6798893"><ele>71.0</ele><time>2026-04-04T09:22:48.317Z</time></trkpt><trkpt lat="45.6973435" lon="11.6798137"><ele>71.0</ele><time>2026-04-04T09:22:50.318Z</time></trkpt><trkpt lat="45.6974395" lon="11.679736"><ele>71.0</ele><time>2026-04-04T09:22:52.319Z</time></trkpt><trkpt lat="45.6975483" lon="11.6796881"><ele>71.0</ele><time>2026-04-04T09:22:54.32Z</time></trkpt><trkpt lat="45.6976161" lon="11.6796856"><ele>71.0</ele><time>2026-04-04T09:22:55.319Z</time></trkpt><trkpt lat="45.6977125" lon="11.6797263"><ele>71.0</ele><time>2026-04-04T09:22:57.323Z</time></trkpt><trkpt lat="45.6977985" lon="11.679756"><ele>71.0</ele><time>2026-04-04T09:22:59.329Z</time></trkpt><trkpt lat="45.6978375" lon="11.6796369"><ele>71.0</ele><time>2026-04-04T09:23:01.319Z</time></trkpt><trkpt lat="45.6978129" lon="11.6795204"><ele>71.0</ele><time>2026-04-04T09:23:03.318Z</time></trkpt><trkpt lat="45.6977082" lon="11.6794859"><ele>71.0</ele><time>2026-04-04T09:23:05.311Z</time></trkpt><trkpt lat="45.6976397" lon="11.6795238"><ele>71.0</ele><time>2026-04-04T09:23:06.309Z</time></trkpt><trkpt lat="45.6975663" lon="11.6795718"><ele>71.0</ele><time>2026-04-04T09:23:07.311Z</time></trkpt><trkpt lat="45.6975047" lon="11.6796309"><ele>71.0</ele><time>2026-04-04T09:23:08.307Z</time></trkpt><trkpt lat="45.6974497" lon="11.679685"><ele>71.0</ele><time>2026-04-04T09:23:09.316Z</time></trkpt><trkpt lat="45.6973563" lon="11.6797406"><ele>71.0</ele><time>2026-04-04T09:23:11.317Z</time></trkpt><trkpt lat="45.697251" lon="11.6797626"><ele>71.0</ele><time>2026-04-04T09:23:13.311Z</time></trkpt><trkpt lat="45.6971541" lon="11.6798361"><ele>71.0</ele><time>2026-04-04T09:23:15.315Z</time></trkpt><trkpt lat="45.6970814" lon="11.6799035"><ele>71.0</ele><time>2026-04-04T09:23:17.311Z</time></trkpt><trkpt lat="45.6970254" lon="11.6799527"><ele>71.0</ele><time>2026-04-04T09:23:19.316Z</time></trkpt><trkpt lat="45.6969614" lon="11.6800368"><ele>71.0</ele><time>2026-04-04T09:23:21.311Z</time></trkpt><trkpt lat="45.6969074" lon="11.680091"><ele>71.0</ele><time>2026-04-04T09:23:22.324Z</time></trkpt><trkpt lat="45.696836" lon="11.6802199"><ele>71.0</ele><time>2026-04-04T09:23:24.329Z</time></trkpt><trkpt lat="45.6967632" lon="11.6802889"><ele>70.66666666666667</ele><time>2026-04-04T09:23:26.315Z</time></trkpt><trkpt lat="45.6967002" lon="11.6802904"><ele>70.33333333333334</ele><time>2026-04-04T09:23:27.32Z</time></trkpt><trkpt lat="45.6966261" lon="11.6802633"><ele>70.0</ele><time>2026-04-04T09:23:28.315Z</time></trkpt><trkpt lat="45.6965569" lon="11.6802573"><ele>69.66666666666667</ele><time>2026-04-04T09:23:29.32Z</time></trkpt><trkpt lat="45.6964906" lon="11.6802855"><ele>69.33333333333333</ele><time>2026-04-04T09:23:30.32Z</time></trkpt><trkpt lat="45.6964074" lon="11.6803371"><ele>69.0</ele><time>2026-04-04T09:23:31.321Z</time></trkpt><trkpt lat="45.6963232" lon="11.6804004"><ele>68.83333333333333</ele><time>2026-04-04T09:23:32.322Z</time></trkpt><trkpt lat="45.6962401" lon="11.6804655"><ele>68.66666666666667</ele><time>2026-04-04T09:23:33.318Z</time></trkpt><trkpt lat="45.6961638" lon="11.6805098"><ele>68.5</ele><time>2026-04-04T09:23:34.322Z</time></trkpt><trkpt lat="45.6960904" lon="11.6805505"><ele>68.33333333333334</ele><time>2026-04-04T09:23:35.313Z</time></trkpt><trkpt lat="45.6960268" lon="11.6805886"><ele>68.16666666666667</ele><time>2026-04-04T09:23:36.314Z</time></trkpt><trkpt lat="45.6959655" lon="11.6806284"><ele>68.0</ele><time>2026-04-04T09:23:37.32Z</time></trkpt><trkpt lat="45.6959024" lon="11.6806722"><ele>67.99999999999999</ele><time>2026-04-04T09:23:38.314Z</time></trkpt><trkpt lat="45.6958463" lon="11.6807143"><ele>68.0</ele><time>2026-04-04T09:23:39.322Z</time></trkpt><trkpt lat="45.6957755" lon="11.680769"><ele>68.0</ele><time>2026-04-04T09:23:41.319Z</time></trkpt><trkpt lat="45.6957334" lon="11.6806937"><ele>68.0</ele><time>2026-04-04T09:23:44.325Z</time></trkpt><trkpt lat="45.6957191" lon="11.6805922"><ele>68.0</ele><time>2026-04-04T09:23:46.325Z</time></trkpt><trkpt lat="45.6956595" lon="11.6805258"><ele>67.99999999999999</ele><time>2026-04-04T09:23:49.318Z</time></trkpt><trkpt lat="45.6955892" lon="11.6805268"><ele>68.0</ele><time>2026-04-04T09:23:51.322Z</time></trkpt><trkpt lat="45.6955185" lon="11.6805523"><ele>68.0</ele><time>2026-04-04T09:23:55.326Z</time></trkpt><trkpt lat="45.6954496" lon="11.6805687"><ele>68.0</ele><time>2026-04-04T09:24:00.322Z</time></trkpt><trkpt lat="45.6953914" lon="11.6806394"><ele>68.0</ele><time>2026-04-04T09:24:04.32Z</time></trkpt><trkpt lat="45.695353" lon="11.6807183"><ele>68.0</ele><time>2026-04-04T09:24:07.325Z</time></trkpt><trkpt lat="45.6952974" lon="11.6808191"><ele>68.0</ele><time>2026-04-04T09:24:10.322Z</time></trkpt><trkpt lat="45.695243" lon="11.6809076"><ele>68.0</ele><time>2026-04-04T09:24:12.321Z</time></trkpt><trkpt lat="45.6951938" lon="11.6809987"><ele>68.0</ele><time>2026-04-04T09:24:14.321Z</time></trkpt><trkpt lat="45.6951162" lon="11.6810393"><ele>68.0</ele><time>2026-04-04T09:24:16.321Z</time></trkpt><trkpt lat="45.6950925" lon="11.6811428"><ele>68.0</ele><time>2026-04-04T09:24:19.317Z</time></trkpt><trkpt lat="45.6951638" lon="11.6811495"><ele>68.0</ele><time>2026-04-04T09:24:21.32Z</time></trkpt><trkpt lat="45.695272" lon="11.6811263"><ele>68.0</ele><time>2026-04-04T09:24:23.32Z</time></trkpt><trkpt lat="45.6953698" lon="11.6810623"><ele>68.0</ele><time>2026-04-04T09:24:25.326Z</time></trkpt><trkpt lat="45.6954652" lon="11.6809846"><ele>68.0</ele><time>2026-04-04T09:24:27.323Z</time></trkpt><trkpt lat="45.6955529" lon="11.6809332"><ele>68.0</ele><time>2026-04-04T09:24:29.326Z</time></trkpt><trkpt lat="45.6956289" lon="11.6809383"><ele>68.0</ele><time>2026-04-04T09:24:31.324Z</time></trkpt><trkpt lat="45.6956716" lon="11.6810252"><ele>68.0</ele><time>2026-04-04T09:24:33.319Z</time></trkpt><trkpt lat="45.6957001" lon="11.6811186"><ele>68.0</ele><time>2026-04-04T09:24:35.313Z</time></trkpt><trkpt lat="45.6957595" lon="11.6811641"><ele>68.0</ele><time>2026-04-04T09:24:37.315Z</time></trkpt><trkpt lat="45.6958278" lon="11.6811007"><ele>68.0</ele><time>2026-04-04T09:24:40.311Z</time></trkpt><trkpt lat="45.6958699" lon="11.6809353"><ele>68.0</ele><time>2026-04-04T09:24:42.314Z</time></trkpt><trkpt lat="45.6959315" lon="11.6808405"><ele>68.0</ele><time>2026-04-04T09:24:44.335Z</time></trkpt><trkpt lat="45.6960468" lon="11.6808091"><ele>68.0</ele><time>2026-04-04T09:24:46.32Z</time></trkpt><trkpt lat="45.6961435" lon="11.680745"><ele>68.0</ele><time>2026-04-04T09:24:48.32Z</time></trkpt><trkpt lat="45.6962084" lon="11.6806871"><ele>67.8</ele><time>2026-04-04T09:24:50.322Z</time></trkpt><trkpt lat="45.6962639" lon="11.6806078"><ele>67.6</ele><time>2026-04-04T09:24:52.318Z</time></trkpt><trkpt lat="45.6963197" lon="11.6805545"><ele>67.4</ele><time>2026-04-04T09:25:00.328Z</time></trkpt><trkpt lat="45.6964308" lon="11.6805638"><ele>67.2</ele><time>2026-04-04T09:25:03.314Z</time></trkpt><trkpt lat="45.6965605" lon="11.680602"><ele>67.0</ele><time>2026-04-04T09:25:05.318Z</time></trkpt><trkpt lat="45.6966857" lon="11.6805993"><ele>67.0</ele><time>2026-04-04T09:25:07.314Z</time></trkpt><trkpt lat="45.6967469" lon="11.6805516"><ele>67.0</ele><time>2026-04-04T09:25:08.313Z</time></trkpt><trkpt lat="45.6968024" lon="11.6804754"><ele>67.0</ele><time>2026-04-04T09:25:09.318Z</time></trkpt><trkpt lat="45.6968555" lon="11.6804075"><ele>67.0</ele><time>2026-04-04T09:25:10.31Z</time></trkpt><trkpt lat="45.6969203" lon="11.6803627"><ele>67.0</ele><time>2026-04-04T09:25:11.31Z</time></trkpt><trkpt lat="45.6969889" lon="11.6803545"><ele>67.0</ele><time>2026-04-04T09:25:12.314Z</time></trkpt><trkpt lat="45.6970511" lon="11.6803775"><ele>67.0</ele><time>2026-04-04T09:25:13.315Z</time></trkpt><trkpt lat="45.6971138" lon="11.6804404"><ele>67.0</ele><time>2026-04-04T09:25:14.325Z</time></trkpt><trkpt lat="45.6971967" lon="11.6805156"><ele>67.0</ele><time>2026-04-04T09:25:15.315Z</time></trkpt><trkpt lat="45.6972931" lon="11.6805866"><ele>67.0</ele><time>2026-04-04T09:25:16.315Z</time></trkpt><trkpt lat="45.6973818" lon="11.6806432"><ele>67.0</ele><time>2026-04-04T09:25:17.309Z</time></trkpt><trkpt lat="45.6974576" lon="11.6806703"><ele>67.0</ele><time>2026-04-04T09:25:18.309Z</time></trkpt><trkpt lat="45.6975288" lon="11.6806803"><ele>67.0</ele><time>2026-04-04T09:25:19.326Z</time></trkpt><trkpt lat="45.6975984" lon="11.6806437"><ele>67.0</ele><time>2026-04-04T09:25:20.329Z</time></trkpt><trkpt lat="45.6976519" lon="11.6805797"><ele>67.0</ele><time>2026-04-04T09:25:21.32Z</time></trkpt><trkpt lat="45.6976992" lon="11.6805077"><ele>67.0</ele><time>2026-04-04T09:25:22.32Z</time></trkpt><trkpt lat="45.6977265" lon="11.6804097"><ele>67.0</ele><time>2026-04-04T09:25:23.328Z</time></trkpt><trkpt lat="45.6977266" lon="11.6802763"><ele>67.0</ele><time>2026-04-04T09:25:24.323Z</time></trkpt><trkpt lat="45.6977019" lon="11.6801413"><ele>67.57142857142857</ele><time>2026-04-04T09:25:25.319Z</time></trkpt><trkpt lat="45.6976949" lon="11.6800365"><ele>68.14285714285714</ele><time>2026-04-04T09:25:26.323Z</time></trkpt><trkpt lat="45.6977196" lon="11.6799527"><ele>68.71428571428571</ele><time>2026-04-04T09:25:27.322Z</time></trkpt><trkpt lat="45.6977462" lon="11.6798558"><ele>69.28571428571428</ele><time>2026-04-04T09:25:29.322Z</time></trkpt><trkpt lat="45.6976501" lon="11.6798669"><ele>69.85714285714285</ele><time>2026-04-04T09:25:32.307Z</time></trkpt><trkpt lat="45.6975885" lon="11.6799157"><ele>70.42857142857143</ele><time>2026-04-04T09:25:33.315Z</time></trkpt><trkpt lat="45.6975278" lon="11.6799661"><ele>71.0</ele><time>2026-04-04T09:25:34.304Z</time></trkpt><trkpt lat="45.6974593" lon="11.6800089"><ele>71.0</ele><time>2026-04-04T09:25:35.309Z</time></trkpt><trkpt lat="45.6973801" lon="11.6801056"><ele>71.0</ele><time>2026-04-04T09:25:37.315Z</time></trkpt><trkpt lat="45.6974115" lon="11.6801838"><ele>71.0</ele><time>2026-04-04T09:25:39.325Z</time></trkpt><trkpt lat="45.6975311" lon="11.6802206"><ele>71.0</ele><time>2026-04-04T09:25:41.312Z</time></trkpt><trkpt lat="45.6976078" lon="11.6803013"><ele>71.0</ele><time>2026-04-04T09:25:43.314Z</time></trkpt><trkpt lat="45.6975977" lon="11.6804105"><ele>71.0</ele><time>2026-04-04T09:25:45.314Z</time></trkpt><trkpt lat="45.697494" lon="11.6804476"><ele>71.0</ele><time>2026-04-04T09:25:47.318Z</time></trkpt><trkpt lat="45.6974296" lon="11.6803895"><ele>71.0</ele><time>2026-04-04T09:25:48.308Z</time></trkpt><trkpt lat="45.6973621" lon="11.6803212"><ele>71.0</ele><time>2026-04-04T09:25:49.31Z</time></trkpt><trkpt lat="45.6972913" lon="11.6802772"><ele>71.0</ele><time>2026-04-04T09:25:50.31Z</time></trkpt><trkpt lat="45.6972201" lon="11.680238"><ele>71.0</ele><time>2026-04-04T09:25:51.315Z</time></trkpt><trkpt lat="45.6971625" lon="11.6801951"><ele>71.0</ele><time>2026-04-04T09:25:52.316Z</time></trkpt><trkpt lat="45.697089" lon="11.6800966"><ele>71.0</ele><time>2026-04-04T09:25:54.319Z</time></trkpt><trkpt lat="45.6970997" lon="11.6800025"><ele>71.0</ele><time>2026-04-04T09:25:56.323Z</time></trkpt><trkpt lat="45.6971905" lon="11.679917"><ele>71.0</ele><time>2026-04-04T09:25:58.318Z</time></trkpt><trkpt lat="45.6972456" lon="11.6798732"><ele>71.0</ele><time>2026-04-04T09:25:59.314Z</time></trkpt><trkpt lat="45.6973059" lon="11.6798315"><ele>71.0</ele><time>2026-04-04T09:26:00.311Z</time></trkpt><trkpt lat="45.6974134" lon="11.6797407"><ele>71.0</ele><time>2026-04-04T09:26:02.31Z</time></trkpt><trkpt lat="45.697506" lon="11.6796836"><ele>71.0</ele><time>2026-04-04T09:26:04.311Z</time></trkpt><trkpt lat="45.6976087" lon="11.6796784"><ele>71.0</ele><time>2026-04-04T09:26:06.311Z</time></trkpt><trkpt lat="45.6977081" lon="11.6797203"><ele>71.0</ele><time>2026-04-04T09:26:08.314Z</time></trkpt><trkpt lat="45.6977859" lon="11.6797677"><ele>71.0</ele><time>2026-04-04T09:26:10.319Z</time></trkpt><trkpt lat="45.6978356" lon="11.6796822"><ele>71.0</ele><time>2026-04-04T09:26:12.31Z</time></trkpt><trkpt lat="45.6978255" lon="11.6795384"><ele>71.0</ele><time>2026-04-04T09:26:14.315Z</time></trkpt><trkpt lat="45.6977499" lon="11.6794671"><ele>71.0</ele><time>2026-04-04T09:26:16.318Z</time></trkpt><trkpt lat="45.6976833" lon="11.6794892"><ele>71.0</ele><time>2026-04-04T09:26:17.302Z</time></trkpt><trkpt lat="45.6976147" lon="11.6795312"><ele>71.0</ele><time>2026-04-04T09:26:18.304Z</time></trkpt><trkpt lat="45.6975489" lon="11.6795911"><ele>71.0</ele><time>2026-04-04T09:26:19.307Z</time></trkpt><trkpt lat="45.6974958" lon="11.679666"><ele>71.0</ele><time>2026-04-04T09:26:20.307Z</time></trkpt><trkpt lat="45.6974391" lon="11.6797183"><ele>71.0</ele><time>2026-04-04T09:26:21.303Z</time></trkpt><trkpt lat="45.697333" lon="11.6797338"><ele>71.0</ele><time>2026-04-04T09:26:23.311Z</time></trkpt><trkpt lat="45.6972274" lon="11.679783"><ele>71.0</ele><time>2026-04-04T09:26:25.307Z</time></trkpt><trkpt lat="45.6971724" lon="11.679829"><ele>71.0</ele><time>2026-04-04T09:26:26.307Z</time></trkpt><trkpt lat="45.6970933" lon="11.679921"><ele>71.0</ele><time>2026-04-04T09:26:28.313Z</time></trkpt><trkpt lat="45.6970239" lon="11.6799826"><ele>71.0</ele><time>2026-04-04T09:26:30.309Z</time></trkpt><trkpt lat="45.6969396" lon="11.6800573"><ele>71.0</ele><time>2026-04-04T09:26:32.302Z</time></trkpt><trkpt lat="45.6968679" lon="11.6801594"><ele>71.0</ele><time>2026-04-04T09:26:34.312Z</time></trkpt><trkpt lat="45.6968306" lon="11.6802521"><ele>71.0</ele><time>2026-04-04T09:26:36.315Z</time></trkpt><trkpt lat="45.6967456" lon="11.6803054"><ele>71.0</ele><time>2026-04-04T09:26:38.307Z</time></trkpt><trkpt lat="45.6966305" lon="11.6802777"><ele>70.71428571428571</ele><time>2026-04-04T09:26:40.314Z</time></trkpt><trkpt lat="45.6965676" lon="11.6802642"><ele>70.42857142857142</ele><time>2026-04-04T09:26:41.311Z</time></trkpt><trkpt lat="45.6965035" lon="11.6802695"><ele>70.14285714285714</ele><time>2026-04-04T09:26:42.31Z</time></trkpt><trkpt lat="45.6964082" lon="11.680317"><ele>69.85714285714286</ele><time>2026-04-04T09:26:44.317Z</time></trkpt><trkpt lat="45.696343" lon="11.6803694"><ele>69.57142857142858</ele><time>2026-04-04T09:26:46.313Z</time></trkpt><trkpt lat="45.6962993" lon="11.68046"><ele>69.28571428571429</ele><time>2026-04-04T09:26:50.318Z</time></trkpt><trkpt lat="45.6962961" lon="11.680555"><ele>69.0</ele><time>2026-04-04T09:26:54.315Z</time></trkpt><trkpt lat="45.6962456" lon="11.6806186"><ele>68.71428571428572</ele><time>2026-04-04T09:38:27.322Z</time></trkpt><trkpt lat="45.6962461" lon="11.6805193"><ele>68.42857142857143</ele><time>2026-04-04T09:38:45.327Z</time></trkpt><trkpt lat="45.6963064" lon="11.6804843"><ele>68.14285714285714</ele><time>2026-04-04T09:38:48.324Z</time></trkpt><trkpt lat="45.6963848" lon="11.6804713"><ele>67.85714285714286</ele><time>2026-04-04T09:39:00.315Z</time></trkpt><trkpt lat="45.6963638" lon="11.6805711"><ele>67.57142857142857</ele><time>2026-04-04T09:39:06.317Z</time></trkpt><trkpt lat="45.6963078" lon="11.6806149"><ele>67.28571428571429</ele><time>2026-04-04T09:39:09.32Z</time></trkpt><trkpt lat="45.6962299" lon="11.6806399"><ele>67.0</ele><time>2026-04-04T09:39:12.322Z</time></trkpt><trkpt lat="45.6962337" lon="11.6805288"><ele>67.0</ele><time>2026-04-04T09:39:17.321Z</time></trkpt><trkpt lat="45.6962985" lon="11.6804927"><ele>67.0</ele><time>2026-04-04T09:39:33.32Z</time></trkpt><trkpt lat="45.6963764" lon="11.6804781"><ele>67.0</ele><time>2026-04-04T09:39:36.316Z</time></trkpt><trkpt lat="45.6963497" lon="11.6805806"><ele>67.0</ele><time>2026-04-04T09:39:52.304Z</time></trkpt><trkpt lat="45.6962733" lon="11.6806152"><ele>67.0</ele><time>2026-04-04T09:39:55.306Z</time></trkpt><trkpt lat="45.6962391" lon="11.6805364"><ele>67.0</ele><time>2026-04-04T09:40:00.305Z</time></trkpt><trkpt lat="45.6963011" lon="11.6804761"><ele>67.0</ele><time>2026-04-04T09:40:12.302Z</time></trkpt><trkpt lat="45.6963668" lon="11.6804632"><ele>67.0</ele><time>2026-04-04T09:40:15.302Z</time></trkpt><trkpt lat="45.6963842" lon="11.6805598"><ele>67.0</ele><time>2026-04-04T09:40:19.296Z</time></trkpt><trkpt lat="45.6963228" lon="11.680613"><ele>67.0</ele><time>2026-04-04T09:40:21.299Z</time></trkpt><trkpt lat="45.6962603" lon="11.6806412"><ele>67.0</ele><time>2026-04-04T09:40:23.294Z</time></trkpt><trkpt lat="45.6961872" lon="11.6805902"><ele>67.0</ele><time>2026-04-04T09:40:27.309Z</time></trkpt><trkpt lat="45.6962474" lon="11.6805199"><ele>67.0</ele><time>2026-04-04T09:40:31.309Z</time></trkpt><trkpt lat="45.6963041" lon="11.6804798"><ele>67.0</ele><time>2026-04-04T09:40:34.305Z</time></trkpt><trkpt lat="45.6963834" lon="11.6804552"><ele>67.0</ele><time>2026-04-04T09:40:38.304Z</time></trkpt><trkpt lat="45.6964049" lon="11.6805406"><ele>67.0</ele><time>2026-04-04T09:40:42.302Z</time></trkpt><trkpt lat="45.6963303" lon="11.6805035"><ele>67.0</ele><time>2026-04-04T09:40:45.304Z</time></trkpt><trkpt lat="45.6962934" lon="11.6804202"><ele>67.0</ele><time>2026-04-04T09:40:47.301Z</time></trkpt><trkpt lat="45.6962712" lon="11.6803211"><ele>67.0</ele><time>2026-04-04T09:40:51.307Z</time></trkpt><trkpt lat="45.6963447" lon="11.680288"><ele>67.0</ele><time>2026-04-04T09:40:56.296Z</time></trkpt><trkpt lat="45.6963791" lon="11.6803699"><ele>67.0</ele><time>2026-04-04T09:41:00.305Z</time></trkpt><trkpt lat="45.6963305" lon="11.6804703"><ele>67.0</ele><time>2026-04-04T09:41:04.301Z</time></trkpt><trkpt lat="45.6963115" lon="11.68058"><ele>67.0</ele><time>2026-04-04T09:41:07.299Z</time></trkpt><trkpt lat="45.6962649" lon="11.6806637"><ele>67.0</ele><time>2026-04-04T09:41:10.306Z</time></trkpt><trkpt lat="45.6961988" lon="11.6806441"><ele>67.0</ele><time>2026-04-04T09:41:13.301Z</time></trkpt><trkpt lat="45.6962512" lon="11.6805868"><ele>67.0</ele><time>2026-04-04T09:41:17.3Z</time></trkpt><trkpt lat="45.696333" lon="11.6805592"><ele>67.0</ele><time>2026-04-04T09:48:24.312Z</time></trkpt><trkpt lat="45.6963952" lon="11.6805179"><ele>67.0</ele><time>2026-04-04T09:48:26.321Z</time></trkpt><trkpt lat="45.6964073" lon="11.6804129"><ele>67.0</ele><time>2026-04-04T09:48:29.315Z</time></trkpt><trkpt lat="45.6963326" lon="11.6803596"><ele>67.0</ele><time>2026-04-04T09:48:32.298Z</time></trkpt><trkpt lat="45.6962698" lon="11.6804"><ele>67.0</ele><time>2026-04-04T09:50:35.314Z</time></trkpt><trkpt lat="45.6962069" lon="11.6804398"><ele>67.0</ele><time>2026-04-04T10:27:03.304Z</time></trkpt><trkpt lat="45.6961288" lon="11.6804898"><ele>67.0</ele><time>2026-04-04T10:27:05.302Z</time></trkpt><trkpt lat="45.6960724" lon="11.6805328"><ele>67.0</ele><time>2026-04-04T10:27:06.302Z</time></trkpt><trkpt lat="45.696008" lon="11.6805804"><ele>67.0</ele><time>2026-04-04T10:27:07.303Z</time></trkpt><trkpt lat="45.6959449" lon="11.6806273"><ele>67.16666666666666</ele><time>2026-04-04T10:27:08.308Z</time></trkpt><trkpt lat="45.6958855" lon="11.6806649"><ele>67.33333333333333</ele><time>2026-04-04T10:27:09.302Z</time></trkpt><trkpt lat="45.6957908" lon="11.680733"><ele>67.5</ele><time>2026-04-04T10:27:11.299Z</time></trkpt><trkpt lat="45.6957204" lon="11.6806367"><ele>67.66666666666667</ele><time>2026-04-04T10:27:14.303Z</time></trkpt><trkpt lat="45.6956762" lon="11.6805353"><ele>67.83333333333334</ele><time>2026-04-04T10:27:16.307Z</time></trkpt><trkpt lat="45.695612" lon="11.6805104"><ele>68.0</ele><time>2026-04-04T10:27:18.299Z</time></trkpt><trkpt lat="45.6955262" lon="11.6805149"><ele>68.0</ele><time>2026-04-04T10:27:21.307Z</time></trkpt><trkpt lat="45.6954578" lon="11.6805601"><ele>68.0</ele><time>2026-04-04T10:27:26.302Z</time></trkpt><trkpt lat="45.6954074" lon="11.6806216"><ele>68.0</ele><time>2026-04-04T10:27:30.305Z</time></trkpt><trkpt lat="45.6953744" lon="11.6807149"><ele>68.0</ele><time>2026-04-04T10:27:33.305Z</time></trkpt><trkpt lat="45.6952912" lon="11.6808191"><ele>68.0</ele><time>2026-04-04T10:27:36.299Z</time></trkpt><trkpt lat="45.6952193" lon="11.6809326"><ele>68.0</ele><time>2026-04-04T10:27:38.305Z</time></trkpt><trkpt lat="45.6951617" lon="11.6810232"><ele>67.99999999999999</ele><time>2026-04-04T10:27:40.3Z</time></trkpt><trkpt lat="45.695088" lon="11.6810908"><ele>68.0</ele><time>2026-04-04T10:27:42.299Z</time></trkpt><trkpt lat="45.6950599" lon="11.681183"><ele>68.0</ele><time>2026-04-04T10:27:44.297Z</time></trkpt><trkpt lat="45.6951253" lon="11.6811843"><ele>68.0</ele><time>2026-04-04T10:27:46.299Z</time></trkpt><trkpt lat="45.695187" lon="11.681161"><ele>68.0</ele><time>2026-04-04T10:27:47.308Z</time></trkpt><trkpt lat="45.6952553" lon="11.6811453"><ele>67.99999999999999</ele><time>2026-04-04T10:27:48.301Z</time></trkpt><trkpt lat="45.695319" lon="11.681115"><ele>68.0</ele><time>2026-04-04T10:27:49.303Z</time></trkpt><trkpt lat="45.6954207" lon="11.6810498"><ele>68.0</ele><time>2026-04-04T10:27:51.303Z</time></trkpt><trkpt lat="45.6955164" lon="11.6809702"><ele>68.0</ele><time>2026-04-04T10:27:53.304Z</time></trkpt><trkpt lat="45.6955914" lon="11.6809249"><ele>68.0</ele><time>2026-04-04T10:27:55.31Z</time></trkpt><trkpt lat="45.6956562" lon="11.6809401"><ele>68.0</ele><time>2026-04-04T10:27:58.303Z</time></trkpt><trkpt lat="45.6956479" lon="11.6810392"><ele>68.0</ele><time>2026-04-04T10:28:07.308Z</time></trkpt><trkpt lat="45.6957081" lon="11.6811563"><ele>68.0</ele><time>2026-04-04T10:28:10.303Z</time></trkpt><trkpt lat="45.6957858" lon="11.6811763"><ele>68.0</ele><time>2026-04-04T10:28:12.3Z</time></trkpt><trkpt lat="45.695851" lon="11.6810915"><ele>68.0</ele><time>2026-04-04T10:28:14.293Z</time></trkpt><trkpt lat="45.6958737" lon="11.6810041"><ele>68.0</ele><time>2026-04-04T10:28:15.298Z</time></trkpt><trkpt lat="45.6959348" lon="11.6808825"><ele>68.0</ele><time>2026-04-04T10:28:17.308Z</time></trkpt><trkpt lat="45.6960373" lon="11.6808359"><ele>68.0</ele><time>2026-04-04T10:28:19.301Z</time></trkpt><trkpt lat="45.6961528" lon="11.6807698"><ele>67.8</ele><time>2026-04-04T10:28:21.305Z</time></trkpt><trkpt lat="45.6962336" lon="11.6806875"><ele>67.6</ele><time>2026-04-04T10:28:23.311Z</time></trkpt><trkpt lat="45.6963309" lon="11.6805937"><ele>67.4</ele><time>2026-04-04T10:28:25.302Z</time></trkpt><trkpt lat="45.6963941" lon="11.680558"><ele>67.2</ele><time>2026-04-04T10:28:26.297Z</time></trkpt><trkpt lat="45.696515" lon="11.680546"><ele>67.0</ele><time>2026-04-04T10:28:28.298Z</time></trkpt><trkpt lat="45.69658" lon="11.680562"><ele>67.0</ele><time>2026-04-04T10:28:29.303Z</time></trkpt><trkpt lat="45.6966913" lon="11.6805823"><ele>67.0</ele><time>2026-04-04T10:28:31.31Z</time></trkpt><trkpt lat="45.6968085" lon="11.6805253"><ele>67.0</ele><time>2026-04-04T10:28:33.302Z</time></trkpt><trkpt lat="45.6969086" lon="11.6804346"><ele>67.0</ele><time>2026-04-04T10:28:35.307Z</time></trkpt><trkpt lat="45.69701" lon="11.6803877"><ele>67.0</ele><time>2026-04-04T10:28:37.304Z</time></trkpt><trkpt lat="45.6971149" lon="11.6804457"><ele>67.0</ele><time>2026-04-04T10:28:39.303Z</time></trkpt><trkpt lat="45.6971825" lon="11.6805041"><ele>67.0</ele><time>2026-04-04T10:28:40.299Z</time></trkpt><trkpt lat="45.6972574" lon="11.6805536"><ele>67.0</ele><time>2026-04-04T10:28:41.308Z</time></trkpt><trkpt lat="45.6973206" lon="11.6806012"><ele>67.0</ele><time>2026-04-04T10:28:42.307Z</time></trkpt><trkpt lat="45.6973808" lon="11.6806428"><ele>67.0</ele><time>2026-04-04T10:28:43.303Z</time></trkpt><trkpt lat="45.6974886" lon="11.6806501"><ele>67.0</ele><time>2026-04-04T10:28:45.307Z</time></trkpt><trkpt lat="45.6976025" lon="11.680563"><ele>67.0</ele><time>2026-04-04T10:28:47.318Z</time></trkpt><trkpt lat="45.6976561" lon="11.680512"><ele>67.0</ele><time>2026-04-04T10:28:48.303Z</time></trkpt><trkpt lat="45.6977027" lon="11.6804477"><ele>67.0</ele><time>2026-04-04T10:28:49.305Z</time></trkpt><trkpt lat="45.6977402" lon="11.6803619"><ele>67.0</ele><time>2026-04-04T10:28:50.313Z</time></trkpt><trkpt lat="45.697748" lon="11.680266"><ele>67.0</ele><time>2026-04-04T10:28:51.304Z</time></trkpt><trkpt lat="45.6977367" lon="11.6801601"><ele>67.66666666666666</ele><time>2026-04-04T10:28:52.307Z</time></trkpt><trkpt lat="45.6977315" lon="11.6800677"><ele>68.33333333333333</ele><time>2026-04-04T10:28:53.304Z</time></trkpt><trkpt lat="45.6977511" lon="11.6799021"><ele>69.0</ele><time>2026-04-04T10:28:55.306Z</time></trkpt><trkpt lat="45.6977137" lon="11.6798191"><ele>69.66666666666667</ele><time>2026-04-04T10:28:58.305Z</time></trkpt><trkpt lat="45.6976259" lon="11.6798695"><ele>70.33333333333334</ele><time>2026-04-04T10:29:00.302Z</time></trkpt><trkpt lat="45.6975372" lon="11.6799319"><ele>71.0</ele><time>2026-04-04T10:29:02.302Z</time></trkpt><trkpt lat="45.6974451" lon="11.6800137"><ele>71.0</ele><time>2026-04-04T10:29:04.306Z</time></trkpt><trkpt lat="45.697377" lon="11.6801123"><ele>71.0</ele><time>2026-04-04T10:29:06.298Z</time></trkpt><trkpt lat="45.6974043" lon="11.6802183"><ele>71.0</ele><time>2026-04-04T10:29:08.3Z</time></trkpt><trkpt lat="45.6975168" lon="11.6802592"><ele>71.0</ele><time>2026-04-04T10:29:10.307Z</time></trkpt><trkpt lat="45.6976028" lon="11.6803357"><ele>71.0</ele><time>2026-04-04T10:29:12.3Z</time></trkpt><trkpt lat="45.6976005" lon="11.6804333"><ele>71.0</ele><time>2026-04-04T10:29:14.308Z</time></trkpt><trkpt lat="45.6975009" lon="11.6804391"><ele>71.0</ele><time>2026-04-04T10:29:16.307Z</time></trkpt><trkpt lat="45.697444" lon="11.6803844"><ele>71.0</ele><time>2026-04-04T10:29:17.307Z</time></trkpt><trkpt lat="45.6973814" lon="11.6803147"><ele>71.0</ele><time>2026-04-04T10:29:18.305Z</time></trkpt><trkpt lat="45.6973171" lon="11.680268"><ele>71.0</ele><time>2026-04-04T10:29:19.308Z</time></trkpt><trkpt lat="45.6972572" lon="11.6802312"><ele>71.0</ele><time>2026-04-04T10:29:20.31Z</time></trkpt><trkpt lat="45.6971565" lon="11.6801685"><ele>71.0</ele><time>2026-04-04T10:29:22.306Z</time></trkpt><trkpt lat="45.6970847" lon="11.6800981"><ele>71.0</ele><time>2026-04-04T10:29:24.301Z</time></trkpt><trkpt lat="45.6970803" lon="11.6800048"><ele>71.0</ele><time>2026-04-04T10:29:26.303Z</time></trkpt><trkpt lat="45.6971773" lon="11.6799221"><ele>71.0</ele><time>2026-04-04T10:29:28.301Z</time></trkpt><trkpt lat="45.6972423" lon="11.6798756"><ele>71.0</ele><time>2026-04-04T10:29:29.301Z</time></trkpt><trkpt lat="45.6972994" lon="11.6798342"><ele>71.0</ele><time>2026-04-04T10:29:30.304Z</time></trkpt><trkpt lat="45.697393" lon="11.67976"><ele>71.0</ele><time>2026-04-04T10:29:32.3Z</time></trkpt><trkpt lat="45.6974956" lon="11.679697"><ele>71.0</ele><time>2026-04-04T10:29:34.307Z</time></trkpt><trkpt lat="45.6976061" lon="11.6796811"><ele>71.0</ele><time>2026-04-04T10:29:36.312Z</time></trkpt><trkpt lat="45.6977018" lon="11.6797161"><ele>71.0</ele><time>2026-04-04T10:29:38.308Z</time></trkpt><trkpt lat="45.6977784" lon="11.6797726"><ele>71.0</ele><time>2026-04-04T10:29:40.31Z</time></trkpt><trkpt lat="45.6978519" lon="11.6796903"><ele>71.0</ele><time>2026-04-04T10:29:43.302Z</time></trkpt><trkpt lat="45.697846" lon="11.6795829"><ele>71.0</ele><time>2026-04-04T10:29:45.3Z</time></trkpt><trkpt lat="45.6977932" lon="11.67951"><ele>71.0</ele><time>2026-04-04T10:29:47.301Z</time></trkpt><trkpt lat="45.6976863" lon="11.6795054"><ele>71.0</ele><time>2026-04-04T10:29:49.296Z</time></trkpt><trkpt lat="45.697623" lon="11.6795336"><ele>71.0</ele><time>2026-04-04T10:29:50.306Z</time></trkpt><trkpt lat="45.6975557" lon="11.6795877"><ele>71.0</ele><time>2026-04-04T10:29:51.307Z</time></trkpt><trkpt lat="45.6974914" lon="11.6796403"><ele>71.0</ele><time>2026-04-04T10:29:52.302Z</time></trkpt><trkpt lat="45.6974278" lon="11.6796894"><ele>71.0</ele><time>2026-04-04T10:29:53.302Z</time></trkpt><trkpt lat="45.6973203" lon="11.6797169"><ele>71.0</ele><time>2026-04-04T10:29:55.306Z</time></trkpt><trkpt lat="45.6972203" lon="11.6797807"><ele>71.0</ele><time>2026-04-04T10:29:57.309Z</time></trkpt><trkpt lat="45.6971305" lon="11.6798652"><ele>71.0</ele><time>2026-04-04T10:29:59.307Z</time></trkpt><trkpt lat="45.6970571" lon="11.6799426"><ele>71.0</ele><time>2026-04-04T10:30:01.309Z</time></trkpt><trkpt lat="45.6969799" lon="11.6800067"><ele>71.0</ele><time>2026-04-04T10:30:03.307Z</time></trkpt><trkpt lat="45.6969041" lon="11.6800835"><ele>71.0</ele><time>2026-04-04T10:30:05.304Z</time></trkpt><trkpt lat="45.6968312" lon="11.6801721"><ele>71.0</ele><time>2026-04-04T10:30:07.299Z</time></trkpt><trkpt lat="45.6967751" lon="11.6802732"><ele>71.0</ele><time>2026-04-04T10:30:09.303Z</time></trkpt><trkpt lat="45.6966705" lon="11.6802679"><ele>70.66666666666667</ele><time>2026-04-04T10:30:11.298Z</time></trkpt><trkpt lat="45.6965488" lon="11.6802652"><ele>70.33333333333334</ele><time>2026-04-04T10:30:13.303Z</time></trkpt><trkpt lat="45.6964877" lon="11.6802886"><ele>70.0</ele><time>2026-04-04T10:30:14.309Z</time></trkpt><trkpt lat="45.6964231" lon="11.6803255"><ele>69.66666666666667</ele><time>2026-04-04T10:30:15.308Z</time></trkpt><trkpt lat="45.6963528" lon="11.68037"><ele>69.33333333333333</ele><time>2026-04-04T10:30:16.308Z</time></trkpt><trkpt lat="45.69628" lon="11.6804212"><ele>69.0</ele><time>2026-04-04T10:30:17.308Z</time></trkpt><trkpt lat="45.6962012" lon="11.6804666"><ele>68.83333333333333</ele><time>2026-04-04T10:30:18.306Z</time></trkpt><trkpt lat="45.6961258" lon="11.6805072"><ele>68.66666666666667</ele><time>2026-04-04T10:30:19.308Z</time></trkpt><trkpt lat="45.6960553" lon="11.6805542"><ele>68.5</ele><time>2026-04-04T10:30:20.305Z</time></trkpt><trkpt lat="45.6959886" lon="11.6806025"><ele>68.33333333333334</ele><time>2026-04-04T10:30:21.317Z</time></trkpt><trkpt lat="45.6959202" lon="11.6806553"><ele>68.16666666666667</ele><time>2026-04-04T10:30:22.3Z</time></trkpt><trkpt lat="45.6958621" lon="11.6806922"><ele>68.0</ele><time>2026-04-04T10:30:23.301Z</time></trkpt><trkpt lat="45.6957734" lon="11.6807505"><ele>68.0</ele><time>2026-04-04T10:30:25.297Z</time></trkpt><trkpt lat="45.695707" lon="11.6807181"><ele>68.0</ele><time>2026-04-04T10:30:27.313Z</time></trkpt><trkpt lat="45.6956645" lon="11.6805784"><ele>68.0</ele><time>2026-04-04T10:30:29.304Z</time></trkpt><trkpt lat="45.6956155" lon="11.6805129"><ele>68.0</ele><time>2026-04-04T10:30:31.306Z</time></trkpt><trkpt lat="45.6955344" lon="11.680499"><ele>68.0</ele><time>2026-04-04T10:30:34.304Z</time></trkpt><trkpt lat="45.6954769" lon="11.6805371"><ele>68.0</ele><time>2026-04-04T10:30:39.31Z</time></trkpt><trkpt lat="45.6954112" lon="11.6805936"><ele>68.0</ele><time>2026-04-04T10:30:43.303Z</time></trkpt><trkpt lat="45.6953782" lon="11.6807046"><ele>68.0</ele><time>2026-04-04T10:30:46.302Z</time></trkpt><trkpt lat="45.6953228" lon="11.6807854"><ele>68.0</ele><time>2026-04-04T10:30:48.303Z</time></trkpt><trkpt lat="45.6952504" lon="11.6808941"><ele>68.0</ele><time>2026-04-04T10:30:50.306Z</time></trkpt><trkpt lat="45.6951865" lon="11.6809915"><ele>68.0</ele><time>2026-04-04T10:30:52.302Z</time></trkpt><trkpt lat="45.695127" lon="11.681062"><ele>68.0</ele><time>2026-04-04T10:30:54.305Z</time></trkpt><trkpt lat="45.6950774" lon="11.6811286"><ele>68.0</ele><time>2026-04-04T10:30:56.302Z</time></trkpt><trkpt lat="45.6951271" lon="11.6812015"><ele>68.0</ele><time>2026-04-04T10:30:59.3Z</time></trkpt><trkpt lat="45.6952187" lon="11.6811919"><ele>68.0</ele><time>2026-04-04T10:31:01.31Z</time></trkpt><trkpt lat="45.6952797" lon="11.6811647"><ele>68.0</ele><time>2026-04-04T10:31:02.306Z</time></trkpt><trkpt lat="45.6953391" lon="11.6811185"><ele>68.0</ele><time>2026-04-04T10:31:03.302Z</time></trkpt><trkpt lat="45.6953921" lon="11.6810654"><ele>68.0</ele><time>2026-04-04T10:31:04.303Z</time></trkpt><trkpt lat="45.6954894" lon="11.6809802"><ele>68.0</ele><time>2026-04-04T10:31:06.309Z</time></trkpt><trkpt lat="45.6955854" lon="11.6809355"><ele>68.0</ele><time>2026-04-04T10:31:08.3Z</time></trkpt><trkpt lat="45.695656" lon="11.6809735"><ele>68.0</ele><time>2026-04-04T10:31:10.301Z</time></trkpt><trkpt lat="45.6956731" lon="11.6810931"><ele>68.0</ele><time>2026-04-04T10:31:13.305Z</time></trkpt><trkpt lat="45.6957521" lon="11.6811601"><ele>68.0</ele><time>2026-04-04T10:31:16.307Z</time></trkpt><trkpt lat="45.6958151" lon="11.681159"><ele>68.0</ele><time>2026-04-04T10:31:18.303Z</time></trkpt><trkpt lat="45.6958564" lon="11.6810407"><ele>68.0</ele><time>2026-04-04T10:31:20.305Z</time></trkpt><trkpt lat="45.6958837" lon="11.6809514"><ele>68.0</ele><time>2026-04-04T10:31:21.299Z</time></trkpt><trkpt lat="45.6959337" lon="11.6808657"><ele>68.0</ele><time>2026-04-04T10:31:23.307Z</time></trkpt><trkpt lat="45.6960429" lon="11.6808296"><ele>68.0</ele><time>2026-04-04T10:31:25.307Z</time></trkpt><trkpt lat="45.6961435" lon="11.680765"><ele>68.0</ele><time>2026-04-04T10:31:27.303Z</time></trkpt><trkpt lat="45.696216" lon="11.6806941"><ele>67.8</ele><time>2026-04-04T10:31:29.317Z</time></trkpt><trkpt lat="45.6962762" lon="11.6805974"><ele>67.6</ele><time>2026-04-04T10:31:31.304Z</time></trkpt><trkpt lat="45.6963616" lon="11.6805422"><ele>67.4</ele><time>2026-04-04T10:31:33.301Z</time></trkpt><trkpt lat="45.6964712" lon="11.6805232"><ele>67.2</ele><time>2026-04-04T10:31:35.299Z</time></trkpt><trkpt lat="45.6965786" lon="11.6805853"><ele>67.0</ele><time>2026-04-04T10:31:37.297Z</time></trkpt><trkpt lat="45.6966408" lon="11.6806001"><ele>67.0</ele><time>2026-04-04T10:31:38.304Z</time></trkpt><trkpt lat="45.696701" lon="11.680573"><ele>67.0</ele><time>2026-04-04T10:31:39.304Z</time></trkpt><trkpt lat="45.696758" lon="11.6805303"><ele>67.0</ele><time>2026-04-04T10:31:40.302Z</time></trkpt><trkpt lat="45.6968166" lon="11.6804672"><ele>67.0</ele><time>2026-04-04T10:31:41.303Z</time></trkpt><trkpt lat="45.6968773" lon="11.6804205"><ele>67.0</ele><time>2026-04-04T10:31:42.307Z</time></trkpt><trkpt lat="45.6969379" lon="11.6803932"><ele>67.0</ele><time>2026-04-04T10:31:43.305Z</time></trkpt><trkpt lat="45.6970496" lon="11.680401"><ele>67.0</ele><time>2026-04-04T10:31:45.308Z</time></trkpt><trkpt lat="45.6971692" lon="11.6804898"><ele>67.0</ele><time>2026-04-04T10:31:47.306Z</time></trkpt><trkpt lat="45.6972329" lon="11.6805396"><ele>67.0</ele><time>2026-04-04T10:31:48.301Z</time></trkpt><trkpt lat="45.6973465" lon="11.6806301"><ele>67.0</ele><time>2026-04-04T10:31:50.307Z</time></trkpt><trkpt lat="45.6974584" lon="11.6806678"><ele>67.0</ele><time>2026-04-04T10:31:52.3Z</time></trkpt><trkpt lat="45.6975649" lon="11.6805961"><ele>67.0</ele><time>2026-04-04T10:31:54.311Z</time></trkpt><trkpt lat="45.697622" lon="11.6805461"><ele>67.0</ele><time>2026-04-04T10:31:55.309Z</time></trkpt><trkpt lat="45.6977074" lon="11.6804252"><ele>67.0</ele><time>2026-04-04T10:31:57.312Z</time></trkpt><trkpt lat="45.6977271" lon="11.6803313"><ele>67.0</ele><time>2026-04-04T10:31:58.295Z</time></trkpt><trkpt lat="45.6977293" lon="11.6802208"><ele>67.0</ele><time>2026-04-04T10:31:59.312Z</time></trkpt><trkpt lat="45.6977143" lon="11.6801209"><ele>67.0</ele><time>2026-04-04T10:32:00.299Z</time></trkpt><trkpt lat="45.6977084" lon="11.6800249"><ele>67.0</ele><time>2026-04-04T10:32:01.319Z</time></trkpt><trkpt lat="45.6977386" lon="11.6798985"><ele>67.66666666666666</ele><time>2026-04-04T10:32:03.311Z</time></trkpt><trkpt lat="45.6977013" lon="11.67982"><ele>68.33333333333333</ele><time>2026-04-04T10:32:06.302Z</time></trkpt><trkpt lat="45.6976408" lon="11.679862"><ele>69.0</ele><time>2026-04-04T10:32:07.304Z</time></trkpt><trkpt lat="45.6975838" lon="11.6799041"><ele>69.66666666666667</ele><time>2026-04-04T10:32:08.298Z</time></trkpt><trkpt lat="45.6974778" lon="11.6799779"><ele>70.33333333333334</ele><time>2026-04-04T10:32:10.302Z</time></trkpt><trkpt lat="45.697402" lon="11.6800553"><ele>71.0</ele><time>2026-04-04T10:32:12.301Z</time></trkpt><trkpt lat="45.6973793" lon="11.6801478"><ele>71.0</ele><time>2026-04-04T10:32:14.304Z</time></trkpt><trkpt lat="45.6974709" lon="11.6802346"><ele>71.0</ele><time>2026-04-04T10:32:16.301Z</time></trkpt><trkpt lat="45.697546" lon="11.680261"><ele>71.0</ele><time>2026-04-04T10:32:17.306Z</time></trkpt><trkpt lat="45.6976028" lon="11.6803023"><ele>71.0</ele><time>2026-04-04T10:32:18.3Z</time></trkpt><trkpt lat="45.6976346" lon="11.6804097"><ele>71.0</ele><time>2026-04-04T10:32:20.308Z</time></trkpt><trkpt lat="45.6975437" lon="11.6804442"><ele>71.0</ele><time>2026-04-04T10:32:22.3Z</time></trkpt><trkpt lat="45.6974837" lon="11.6803968"><ele>71.0</ele><time>2026-04-04T10:32:23.307Z</time></trkpt><trkpt lat="45.6974148" lon="11.6803473"><ele>71.0</ele><time>2026-04-04T10:32:24.297Z</time></trkpt><trkpt lat="45.6973427" lon="11.6802942"><ele>71.0</ele><time>2026-04-04T10:32:25.303Z</time></trkpt><trkpt lat="45.6972701" lon="11.6802434"><ele>71.0</ele><time>2026-04-04T10:32:26.303Z</time></trkpt><trkpt lat="45.6972076" lon="11.680206"><ele>71.0</ele><time>2026-04-04T10:32:27.306Z</time></trkpt><trkpt lat="45.6971491" lon="11.6801684"><ele>71.0</ele><time>2026-04-04T10:32:28.298Z</time></trkpt><trkpt lat="45.6970631" lon="11.6800989"><ele>71.0</ele><time>2026-04-04T10:32:30.305Z</time></trkpt><trkpt lat="45.69706" lon="11.6800045"><ele>71.0</ele><time>2026-04-04T10:32:32.302Z</time></trkpt><trkpt lat="45.697148" lon="11.67991"><ele>71.0</ele><time>2026-04-04T10:32:34.302Z</time></trkpt><trkpt lat="45.6972099" lon="11.6798806"><ele>71.0</ele><time>2026-04-04T10:32:35.306Z</time></trkpt><trkpt lat="45.6972735" lon="11.6798418"><ele>71.0</ele><time>2026-04-04T10:32:36.308Z</time></trkpt><trkpt lat="45.697334" lon="11.6798053"><ele>71.0</ele><time>2026-04-04T10:32:37.307Z</time></trkpt><trkpt lat="45.6974416" lon="11.6797237"><ele>71.0</ele><time>2026-04-04T10:32:39.307Z</time></trkpt><trkpt lat="45.6975512" lon="11.6796772"><ele>71.0</ele><time>2026-04-04T10:32:41.307Z</time></trkpt><trkpt lat="45.6976466" lon="11.6796728"><ele>71.0</ele><time>2026-04-04T10:32:43.305Z</time></trkpt><trkpt lat="45.697725" lon="11.6797212"><ele>71.0</ele><time>2026-04-04T10:32:45.303Z</time></trkpt><trkpt lat="45.6978031" lon="11.6796863"><ele>71.0</ele><time>2026-04-04T10:32:47.291Z</time></trkpt><trkpt lat="45.6978263" lon="11.6795624"><ele>71.0</ele><time>2026-04-04T10:32:49.292Z</time></trkpt><trkpt lat="45.6977908" lon="11.6794459"><ele>71.0</ele><time>2026-04-04T10:32:51.296Z</time></trkpt><trkpt lat="45.6976885" lon="11.6794112"><ele>71.0</ele><time>2026-04-04T10:32:53.302Z</time></trkpt><trkpt lat="45.6976242" lon="11.6794429"><ele>71.0</ele><time>2026-04-04T10:32:54.307Z</time></trkpt><trkpt lat="45.6975724" lon="11.6795001"><ele>71.0</ele><time>2026-04-04T10:32:55.3Z</time></trkpt><trkpt lat="45.697512" lon="11.6795686"><ele>71.0</ele><time>2026-04-04T10:32:56.305Z</time></trkpt><trkpt lat="45.6974579" lon="11.6796257"><ele>71.0</ele><time>2026-04-04T10:32:57.308Z</time></trkpt><trkpt lat="45.6973445" lon="11.6796754"><ele>71.0</ele><time>2026-04-04T10:32:59.308Z</time></trkpt><trkpt lat="45.6972812" lon="11.6797095"><ele>71.0</ele><time>2026-04-04T10:33:00.303Z</time></trkpt><trkpt lat="45.6971796" lon="11.6797715"><ele>71.0</ele><time>2026-04-04T10:33:02.302Z</time></trkpt><trkpt lat="45.697101" lon="11.6798634"><ele>71.0</ele><time>2026-04-04T10:33:04.302Z</time></trkpt><trkpt lat="45.6970324" lon="11.6799404"><ele>71.0</ele><time>2026-04-04T10:33:06.305Z</time></trkpt><trkpt lat="45.6969548" lon="11.6800282"><ele>71.0</ele><time>2026-04-04T10:33:08.3Z</time></trkpt><trkpt lat="45.6968712" lon="11.6800984"><ele>71.0</ele><time>2026-04-04T10:33:10.306Z</time></trkpt><trkpt lat="45.696828" lon="11.6802401"><ele>71.0</ele><time>2026-04-04T10:33:12.306Z</time></trkpt><trkpt lat="45.6967486" lon="11.6802471"><ele>71.0</ele><time>2026-04-04T10:33:18.307Z</time></trkpt><trkpt lat="45.6966615" lon="11.6802013"><ele>70.66666666666667</ele><time>2026-04-04T10:33:20.304Z</time></trkpt><trkpt lat="45.6965428" lon="11.6802052"><ele>70.33333333333334</ele><time>2026-04-04T10:33:22.307Z</time></trkpt><trkpt lat="45.6964784" lon="11.6802365"><ele>70.0</ele><time>2026-04-04T10:33:23.305Z</time></trkpt><trkpt lat="45.6963911" lon="11.6803025"><ele>69.66666666666667</ele><time>2026-04-04T10:33:25.308Z</time></trkpt><trkpt lat="45.696331" lon="11.6803585"><ele>69.33333333333333</ele><time>2026-04-04T10:33:27.301Z</time></trkpt><trkpt lat="45.6962639" lon="11.6804302"><ele>69.0</ele><time>2026-04-04T10:33:30.303Z</time></trkpt><trkpt lat="45.6957359" lon="11.6803526"><ele>69.0</ele><time>2026-04-04T10:43:33.348Z</time></trkpt><trkpt lat="45.6944099" lon="11.6809021"><ele>69.0</ele><time>2026-04-04T10:43:57.344Z</time></trkpt><trkpt lat="45.6923746" lon="11.6815572"><ele>64.0</ele><time>2026-04-04T10:44:23.342Z</time></trkpt><trkpt lat="45.6903201" lon="11.6819372"><ele>65.0</ele><time>2026-04-04T10:44:49.342Z</time></trkpt><trkpt lat="45.6882056" lon="11.6822412"><ele>65.0</ele><time>2026-04-04T10:45:11.34Z</time></trkpt><trkpt lat="45.6861095" lon="11.6823801"><ele>64.0</ele><time>2026-04-04T10:45:36.342Z</time></trkpt><trkpt lat="45.6840626" lon="11.6829736"><ele>61.0</ele><time>2026-04-04T10:46:02.33Z</time></trkpt><trkpt lat="45.6820705" lon="11.6839131"><ele>63.0</ele><time>2026-04-04T10:46:34.34Z</time></trkpt><trkpt lat="45.6801162" lon="11.6851241"><ele>64.0</ele><time>2026-04-04T10:46:54.338Z</time></trkpt><trkpt lat="45.6773782" lon="11.6845514"><ele>53.0</ele><time>2026-04-04T10:52:28.331Z</time></trkpt><trkpt lat="45.6768989" lon="11.6883949"><ele>61.0</ele><time>2026-04-04T10:54:09.344Z</time></trkpt><trkpt lat="45.6774059" lon="11.6904798"><ele>61.0</ele><time>2026-04-04T10:56:22.331Z</time></trkpt></trkseg></trk></gpx>